Observation data for Castolon 1NW BBNP on 06/25/2019      Previous  Date  Next       Current Mesonet Observations  Soil Data  Daily Summary Page  Observations in Plain Language
KCA2 250500Z 12016KT 32/11 A2983 RMK A01 T03220109  RH  027%=      5-min Rain = 0
KCA2 250501Z 12017KT 32/12 A2983 RMK A01 T03220117  RH  029%=      5-min Rain = 0
KCA2 250502Z 11017KT 32/12 A2983 RMK A01 T03220121  RH  029%=      5-min Rain = 0
KCA2 250503Z 11014G19KT 32/13 A2983 RMK A01 T03220130  RH  031%=      5-min Rain = 0
KCA2 250504Z 11014KT 32/13 A2983 RMK A01 T03220127  RH  031%=      5-min Rain = 0
KCA2 250505Z 10011KT 32/13 A2983 RMK A01 T03210125  RH  030%=      5-min Rain = 0
KCA2 250506Z 11014G19KT 32/14 A2983 RMK A01 T03210137  RH  033%=      5-min Rain = 0
KCA2 250507Z 10016G21KT 32/14 A2983 RMK A01 T03200144  RH  034%=      5-min Rain = 0
KCA2 250508Z 11017G22KT 32/15 A2983 RMK A01 T03200147  RH  035%=      5-min Rain = 0
KCA2 250509Z 11019KT 32/15 A2983 RMK A01 T03200153  RH  037%=      5-min Rain = 0
KCA2 250510Z 11016KT 32/16 A2983 RMK A01 T03190155  RH  037%=      5-min Rain = 0
KCA2 250511Z 11012G17KT 32/16 A2983 RMK A01 T03190156  RH  038%=      5-min Rain = 0
KCA2 250512Z 11015G20KT 32/16 A2983 RMK A01 T03180160  RH  038%=      5-min Rain = 0
KCA2 250513Z 11015G20KT 32/16 A2983 RMK A01 T03180161  RH  039%=      5-min Rain = 0
KCA2 250514Z 11016KT 32/16 A2984 RMK A01 T03180164  RH  040%=      5-min Rain = 0
KCA2 250515Z 11014KT 32/16 A2984 RMK A01 T03180164  RH  040%=      5-min Rain = 0
KCA2 250516Z 11015KT 32/17 A2984 RMK A01 T03170165  RH  040%=      5-min Rain = 0
KCA2 250517Z 11012KT 32/17 A2984 RMK A01 T03170168  RH  041%=      5-min Rain = 0
KCA2 250518Z 11011KT 32/17 A2984 RMK A01 T03160168  RH  041%=      5-min Rain = 0
KCA2 250519Z 11013KT 32/17 A2984 RMK A01 T03160169  RH  041%=      5-min Rain = 0
KCA2 250520Z 11014KT 32/17 A2984 RMK A01 T03160170  RH  041%=      5-min Rain = 0
KCA2 250521Z 11011KT 32/17 A2984 RMK A01 T03160172  RH  042%=      5-min Rain = 0
KCA2 250522Z 11013KT 32/17 A2984 RMK A01 T03150173  RH  043%=      5-min Rain = 0
KCA2 250523Z 11012KT 32/17 A2985 RMK A01 T03150174  RH  043%=      5-min Rain = 0
KCA2 250524Z 11014KT 31/17 A2985 RMK A01 T03140173  RH  043%=      5-min Rain = 0
KCA2 250525Z 11016KT 31/17 A2985 RMK A01 T03140171  RH  042%=      5-min Rain = 0
KCA2 250526Z 11017KT 31/17 A2985 RMK A01 T03140169  RH  042%=      5-min Rain = 0
KCA2 250527Z 11015KT 31/17 A2985 RMK A01 T03140168  RH  042%=      5-min Rain = 0
KCA2 250528Z 12012KT 31/17 A2985 RMK A01 T03140167  RH  041%=      5-min Rain = 0
KCA2 250529Z 12011KT 31/16 A2985 RMK A01 T03140164  RH  041%=      5-min Rain = 0
KCA2 250530Z 11015KT 31/16 A2985 RMK A01 T03140162  RH  040%=      5-min Rain = 0
KCA2 250531Z 11011KT 31/16 A2985 RMK A01 T03140161  RH  040%=      5-min Rain = 0
KCA2 250532Z 12011KT 31/16 A2985 RMK A01 T03140161  RH  040%=      5-min Rain = 0
KCA2 250533Z 12016KT 31/16 A2985 RMK A01 T03130158  RH  039%=      5-min Rain = 0
KCA2 250534Z 12012KT 31/16 A2986 RMK A01 T03130158  RH  039%=      5-min Rain = 0
KCA2 250535Z 13009KT 31/16 A2986 RMK A01 T03130157  RH  039%=      5-min Rain = 0
KCA2 250536Z 13009KT 31/16 A2986 RMK A01 T03120157  RH  039%=      5-min Rain = 0
KCA2 250537Z 13013KT 31/15 A2986 RMK A01 T03110154  RH  039%=      5-min Rain = 0
KCA2 250538Z 13008KT 31/15 A2986 RMK A01 T03110153  RH  038%=      5-min Rain = 0
KCA2 250539Z 14010KT 31/15 A2986 RMK A01 T03100152  RH  038%=      5-min Rain = 0
KCA2 250540Z 14010KT 31/15 A2986 RMK A01 T03100151  RH  038%=      5-min Rain = 0
KCA2 250541Z 13011KT 31/15 A2986 RMK A01 T03090150  RH  038%=      5-min Rain = 0
KCA2 250542Z 13010KT 31/15 A2986 RMK A01 T03080149  RH  038%=      5-min Rain = 0
KCA2 250543Z 14009KT 31/15 A2986 RMK A01 T03080149  RH  038%=      5-min Rain = 0
KCA2 250544Z 13008KT 31/15 A2986 RMK A01 T03080149  RH  038%=      5-min Rain = 0
KCA2 250545Z 12008KT 31/15 A2986 RMK A01 T03070149  RH  038%=      5-min Rain = 0
KCA2 250546Z 13007KT 31/15 A2986 RMK A01 T03070149  RH  038%=      5-min Rain = 0
KCA2 250547Z 13009KT 31/15 A2986 RMK A01 T03070149  RH  038%=      5-min Rain = 0
KCA2 250548Z 13007KT 31/15 A2987 RMK A01 T03070149  RH  038%=      5-min Rain = 0
KCA2 250549Z 13007KT 31/15 A2987 RMK A01 T03070149  RH  038%=      5-min Rain = 0
KCA2 250550Z 12008KT 31/15 A2986 RMK A01 T03070149  RH  038%=      5-min Rain = 0
KCA2 250551Z 12006KT 31/15 A2986 RMK A01 T03070149  RH  038%=      5-min Rain = 0
KCA2 250552Z 12006KT 31/15 A2986 RMK A01 T03070149  RH  038%=      5-min Rain = 0
KCA2 250553Z 14006KT 31/15 A2986 RMK A01 T03060148  RH  038%=      5-min Rain = 0
KCA2 250554Z 13008KT 31/15 A2986 RMK A01 T03060148  RH  038%=      5-min Rain = 0
KCA2 250555Z 13009KT 31/15 A2986 RMK A01 T03060147  RH  038%=      5-min Rain = 0
KCA2 250556Z 12011KT 31/15 A2986 RMK A01 T03060147  RH  038%=      5-min Rain = 0
KCA2 250557Z 12009KT 31/15 A2986 RMK A01 T03060146  RH  038%=      5-min Rain = 0
KCA2 250558Z 14009KT 31/15 A2986 RMK A01 T03070147  RH  038%=      5-min Rain = 0
KCA2 250559Z 12007KT 31/15 A2986 RMK A01 T03070147  RH  038%=      5-min Rain = 0
KCA2 250600Z 12007KT 31/15 A2986 RMK A01 T03060147  RH  038%=      5-min Rain = 0
KCA2 250601Z 12009KT 31/15 A2986 RMK A01 T03060146  RH  038%=      5-min Rain = 0
KCA2 250602Z 11007KT 31/15 A2986 RMK A01 T03060146  RH  038%=      5-min Rain = 0
KCA2 250603Z 11009KT 31/15 A2986 RMK A01 T03050146  RH  038%=      5-min Rain = 0
KCA2 250604Z 11010KT 31/15 A2986 RMK A01 T03050145  RH  038%=      5-min Rain = 0
KCA2 250605Z 11012KT 31/15 A2986 RMK A01 T03050145  RH  038%=      5-min Rain = 0
KCA2 250606Z 11013KT 31/14 A2986 RMK A01 T03050144  RH  038%=      5-min Rain = 0
KCA2 250607Z 11011KT 31/14 A2986 RMK A01 T03050144  RH  037%=      5-min Rain = 0
KCA2 250608Z 11010KT 31/14 A2986 RMK A01 T03060144  RH  037%=      5-min Rain = 0
KCA2 250609Z 11012KT 31/14 A2986 RMK A01 T03060144  RH  037%=      5-min Rain = 0
KCA2 250610Z 11011KT 31/14 A2986 RMK A01 T03050144  RH  037%=      5-min Rain = 0
KCA2 250611Z 13007KT 31/14 A2986 RMK A01 T03050144  RH  037%=      5-min Rain = 0
KCA2 250612Z 13010KT 31/14 A2986 RMK A01 T03050144  RH  038%=      5-min Rain = 0
KCA2 250613Z 12009KT 30/14 A2986 RMK A01 T03040144  RH  038%=      5-min Rain = 0
KCA2 250614Z 13011G17KT 30/14 A2986 RMK A01 T03040144  RH  038%=      5-min Rain = 0
KCA2 250615Z 12014KT 30/14 A2986 RMK A01 T03040144  RH  038%=      5-min Rain = 0
KCA2 250616Z 12013G19KT 30/15 A2987 RMK A01 T03040145  RH  038%=      5-min Rain = 0
KCA2 250617Z 11012KT 30/15 A2987 RMK A01 T03040145  RH  038%=      5-min Rain = 0
KCA2 250618Z 11012KT 30/15 A2987 RMK A01 T03040145  RH  038%=      5-min Rain = 0
KCA2 250619Z 11012KT 30/15 A2987 RMK A01 T03040145  RH  038%=      5-min Rain = 0
KCA2 250620Z 11011KT 30/15 A2987 RMK A01 T03040145  RH  038%=      5-min Rain = 0
KCA2 250621Z 11011KT 30/15 A2987 RMK A01 T03030145  RH  038%=      5-min Rain = 0
KCA2 250622Z 11011KT 30/15 A2987 RMK A01 T03030145  RH  038%=      5-min Rain = 0
KCA2 250623Z 12010KT 30/15 A2987 RMK A01 T03030145  RH  038%=      5-min Rain = 0
KCA2 250624Z 13008KT 30/15 A2987 RMK A01 T03030145  RH  038%=      5-min Rain = 0
KCA2 250625Z 13009KT 30/15 A2987 RMK A01 T03020145  RH  038%=      5-min Rain = 0
KCA2 250626Z 13012KT 30/15 A2987 RMK A01 T03020145  RH  039%=      5-min Rain = 0
KCA2 250627Z 12013KT 30/15 A2987 RMK A01 T03020146  RH  039%=      5-min Rain = 0
KCA2 250628Z 11013KT 30/15 A2987 RMK A01 T03020146  RH  039%=      5-min Rain = 0
KCA2 250629Z 12012KT 30/15 A2987 RMK A01 T03020147  RH  039%=      5-min Rain = 0
KCA2 250630Z 12012KT 30/15 A2987 RMK A01 T03020147  RH  039%=      5-min Rain = 0
KCA2 250631Z 13011KT 30/15 A2987 RMK A01 T03010147  RH  039%=      5-min Rain = 0
KCA2 250632Z 14011KT 30/15 A2987 RMK A01 T03010147  RH  039%=      5-min Rain = 0
KCA2 250633Z 12010KT 30/15 A2987 RMK A01 T03010147  RH  039%=      5-min Rain = 0
KCA2 250634Z 13010KT 30/15 A2987 RMK A01 T03000147  RH  039%=      5-min Rain = 0
KCA2 250635Z 13008KT 30/15 A2987 RMK A01 T03000147  RH  040%=      5-min Rain = 0
KCA2 250636Z 14008G13KT 30/15 A2987 RMK A01 T03000147  RH  040%=      5-min Rain = 0
KCA2 250637Z 13013KT 30/15 A2987 RMK A01 T02990148  RH  040%=      5-min Rain = 0
KCA2 250638Z 14010KT 30/15 A2987 RMK A01 T02990148  RH  040%=      5-min Rain = 0
KCA2 250639Z 13010KT 30/15 A2987 RMK A01 T02980148  RH  040%=      5-min Rain = 0
KCA2 250640Z 14009KT 30/15 A2987 RMK A01 T02980148  RH  040%=      5-min Rain = 0
KCA2 250641Z 13012KT 30/15 A2987 RMK A01 T02970149  RH  040%=      5-min Rain = 0
KCA2 250642Z 13012KT 30/15 A2987 RMK A01 T02970149  RH  041%=      5-min Rain = 0
KCA2 250643Z 14012KT 30/15 A2987 RMK A01 T02970149  RH  041%=      5-min Rain = 0
KCA2 250644Z 13012KT 30/15 A2987 RMK A01 T02970150  RH  041%=      5-min Rain = 0
KCA2 250645Z 13011KT 30/15 A2987 RMK A01 T02970149  RH  041%=      5-min Rain = 0
KCA2 250646Z 13008KT 30/15 A2987 RMK A01 T02970150  RH  041%=      5-min Rain = 0
KCA2 250647Z 14009KT 30/15 A2987 RMK A01 T02960150  RH  041%=      5-min Rain = 0
KCA2 250648Z 13009KT 30/15 A2987 RMK A01 T02960150  RH  041%=      5-min Rain = 0
KCA2 250649Z 13009KT 30/15 A2987 RMK A01 T02960150  RH  041%=      5-min Rain = 0
KCA2 250650Z 13009KT 30/15 A2987 RMK A01 T02960150  RH  041%=      5-min Rain = 0
KCA2 250651Z 12010KT 30/15 A2987 RMK A01 T02960150  RH  041%=      5-min Rain = 0
KCA2 250652Z 12010KT 30/15 A2987 RMK A01 T02970151  RH  041%=      5-min Rain = 0
KCA2 250653Z 13013KT 30/15 A2987 RMK A01 T02980151  RH  041%=      5-min Rain = 0
KCA2 250654Z 12009KT 30/15 A2987 RMK A01 T02980151  RH  041%=      5-min Rain = 0
KCA2 250655Z 13011G16KT 30/15 A2987 RMK A01 T02980150  RH  041%=      5-min Rain = 0
KCA2 250656Z 12011KT 30/15 A2987 RMK A01 T02990150  RH  041%=      5-min Rain = 0
KCA2 250657Z 12010KT 30/15 A2987 RMK A01 T02980150  RH  040%=      5-min Rain = 0
KCA2 250658Z 13011KT 30/15 A2987 RMK A01 T02980149  RH  040%=      5-min Rain = 0
KCA2 250659Z 12012KT 30/15 A2987 RMK A01 T02990150  RH  040%=      5-min Rain = 0
KCA2 250700Z 13012KT 30/15 A2987 RMK A01 T02990150  RH  040%=      5-min Rain = 0
KCA2 250701Z 13011KT 30/15 A2987 RMK A01 T02990149  RH  040%=      5-min Rain = 0
KCA2 250702Z 13012KT 30/15 A2987 RMK A01 T02990150  RH  040%=      5-min Rain = 0
KCA2 250703Z 13011KT 30/15 A2987 RMK A01 T02990150  RH  040%=      5-min Rain = 0
KCA2 250704Z 12010KT 30/15 A2987 RMK A01 T02990150  RH  040%=      5-min Rain = 0
KCA2 250705Z 12011KT 30/15 A2987 RMK A01 T02980150  RH  041%=      5-min Rain = 0
KCA2 250706Z 12010KT 30/15 A2987 RMK A01 T02980150  RH  041%=      5-min Rain = 0
KCA2 250707Z 12012KT 30/15 A2987 RMK A01 T02980150  RH  041%=      5-min Rain = 0
KCA2 250708Z 12012KT 30/15 A2987 RMK A01 T02980150  RH  040%=      5-min Rain = 0
KCA2 250709Z 13010KT 30/15 A2987 RMK A01 T02980150  RH  040%=      5-min Rain = 0
KCA2 250710Z 12010KT 30/15 A2987 RMK A01 T02980149  RH  040%=      5-min Rain = 0
KCA2 250711Z 13009KT 30/15 A2987 RMK A01 T02980149  RH  040%=      5-min Rain = 0
KCA2 250712Z 13009KT 30/15 A2987 RMK A01 T02970149  RH  040%=      5-min Rain = 0
KCA2 250713Z 12010KT 30/15 A2987 RMK A01 T02970150  RH  041%=      5-min Rain = 0
KCA2 250714Z 12009KT 30/15 A2987 RMK A01 T02970150  RH  041%=      5-min Rain = 0
KCA2 250715Z 13010KT 30/15 A2987 RMK A01 T02970151  RH  041%=      5-min Rain = 0
KCA2 250716Z 12008KT 30/15 A2987 RMK A01 T02970152  RH  041%=      5-min Rain = 0
KCA2 250717Z 12008KT 30/15 A2987 RMK A01 T02970152  RH  041%=      5-min Rain = 0
KCA2 250718Z 12007KT 30/15 A2988 RMK A01 T02970152  RH  042%=      5-min Rain = 0
KCA2 250719Z 11008KT 30/15 A2988 RMK A01 T02970153  RH  042%=      5-min Rain = 0
KCA2 250720Z 12008KT 30/15 A2988 RMK A01 T02970153  RH  042%=      5-min Rain = 0
KCA2 250721Z 11006KT 30/15 A2988 RMK A01 T02960153  RH  042%=      5-min Rain = 0
KCA2 250722Z 11005KT 30/15 A2988 RMK A01 T02960153  RH  042%=      5-min Rain = 0
KCA2 250723Z 12007KT 30/15 A2988 RMK A01 T02960153  RH  042%=      5-min Rain = 0
KCA2 250724Z 11007KT 30/15 A2988 RMK A01 T02960153  RH  042%=      5-min Rain = 0
KCA2 250725Z 11006KT 30/15 A2988 RMK A01 T02960153  RH  042%=      5-min Rain = 0
KCA2 250726Z 11006KT 30/15 A2988 RMK A01 T02960153  RH  042%=      5-min Rain = 0
KCA2 250727Z 10006KT 30/15 A2988 RMK A01 T02960153  RH  042%=      5-min Rain = 0
KCA2 250728Z 10007KT 30/15 A2988 RMK A01 T02960153  RH  042%=      5-min Rain = 0
KCA2 250729Z 10007KT 30/15 A2988 RMK A01 T02960153  RH  042%=      5-min Rain = 0
KCA2 250730Z 10007KT 30/15 A2988 RMK A01 T02960152  RH  042%=      5-min Rain = 0
KCA2 250731Z 10005KT 30/15 A2988 RMK A01 T02960153  RH  042%=      5-min Rain = 0
KCA2 250732Z 09004KT 30/15 A2988 RMK A01 T02950152  RH  042%=      5-min Rain = 0
KCA2 250733Z 09005KT 30/15 A2988 RMK A01 T02950152  RH  042%=      5-min Rain = 0
KCA2 250734Z 08003KT 29/15 A2988 RMK A01 T02940152  RH  042%=      5-min Rain = 0
KCA2 250735Z 05004KT 29/15 A2988 RMK A01 T02940152  RH  042%=      5-min Rain = 0
KCA2 250736Z 03005KT 29/17 A2988 RMK A01 T02940169  RH  047%=      5-min Rain = 0
KCA2 250737Z 03003KT 29/18 A2988 RMK A01 T02900176  RH  050%=      5-min Rain = 0
KCA2 250738Z 01003KT 29/18 A2988 RMK A01 T02870177  RH  051%=      5-min Rain = 0
KCA2 250739Z 01003KT 29/18 A2988 RMK A01 T02850178  RH  052%=      5-min Rain = 0
KCA2 250740Z 00004KT 28/18 A2988 RMK A01 T02830179  RH  053%=      5-min Rain = 0
KCA2 250741Z 01004KT 28/18 A2988 RMK A01 T02820180  RH  054%=      5-min Rain = 0
KCA2 250742Z 03004KT 28/18 A2988 RMK A01 T02810180  RH  054%=      5-min Rain = 0
KCA2 250743Z 04003KT 28/18 A2988 RMK A01 T02800181  RH  055%=      5-min Rain = 0
KCA2 250744Z 02004KT 28/18 A2988 RMK A01 T02790181  RH  055%=      5-min Rain = 0
KCA2 250745Z 03006KT 28/18 A2988 RMK A01 T02790183  RH  056%=      5-min Rain = 0
KCA2 250746Z 05006KT 28/18 A2988 RMK A01 T02780183  RH  056%=      5-min Rain = 0
KCA2 250747Z 05005KT 28/18 A2988 RMK A01 T02770183  RH  056%=      5-min Rain = 0
KCA2 250748Z 04005KT 28/18 A2988 RMK A01 T02770184  RH  057%=      5-min Rain = 0
KCA2 250749Z 04004KT 28/18 A2988 RMK A01 T02770184  RH  057%=      5-min Rain = 0
KCA2 250750Z 06005KT 28/18 A2988 RMK A01 T02760183  RH  057%=      5-min Rain = 0
KCA2 250751Z 05005KT 28/18 A2988 RMK A01 T02760184  RH  057%=      5-min Rain = 0
KCA2 250752Z 04004KT 28/18 A2988 RMK A01 T02760183  RH  057%=      5-min Rain = 0
KCA2 250753Z 05003KT 28/18 A2988 RMK A01 T02750183  RH  057%=      5-min Rain = 0
KCA2 250754Z 06003KT 28/18 A2988 RMK A01 T02750183  RH  057%=      5-min Rain = 0
KCA2 250755Z 09003KT 28/18 A2988 RMK A01 T02750183  RH  057%=      5-min Rain = 0
KCA2 250756Z 06003KT 28/18 A2988 RMK A01 T02750183  RH  057%=      5-min Rain = 0
KCA2 250757Z 03002KT 28/18 A2988 RMK A01 T02750184  RH  058%=      5-min Rain = 0
KCA2 250758Z 05002KT 27/18 A2988 RMK A01 T02740183  RH  058%=      5-min Rain = 0
KCA2 250759Z 10001KT 27/18 A2988 RMK A01 T02740183  RH  058%=      5-min Rain = 0
KCA2 250800Z 12002KT 27/18 A2988 RMK A01 T02740175  RH  055%=      5-min Rain = 0
KCA2 250801Z 12002KT 28/17 A2988 RMK A01 T02750170  RH  053%=      5-min Rain = 0
KCA2 250802Z 15004KT 28/17 A2988 RMK A01 T02760172  RH  053%=      5-min Rain = 0
KCA2 250803Z 13005KT 28/16 A2988 RMK A01 T02760160  RH  049%=      5-min Rain = 0
KCA2 250804Z 13007KT 28/15 A2988 RMK A01 T02780151  RH  046%=      5-min Rain = 0
KCA2 250805Z 12006KT 28/15 A2988 RMK A01 T02810147  RH  044%=      5-min Rain = 0
KCA2 250806Z 13005KT 28/15 A2988 RMK A01 T02830147  RH  043%=      5-min Rain = 0
KCA2 250807Z 13005KT 28/15 A2988 RMK A01 T02840146  RH  043%=      5-min Rain = 0
KCA2 250808Z 12006KT 29/15 A2988 RMK A01 T02850146  RH  043%=      5-min Rain = 0
KCA2 250809Z 12005KT 29/15 A2988 RMK A01 T02860146  RH  042%=      5-min Rain = 0
KCA2 250810Z 12006KT 29/15 A2988 RMK A01 T02860146  RH  042%=      5-min Rain = 0
KCA2 250811Z 12007KT 29/15 A2988 RMK A01 T02860146  RH  042%=      5-min Rain = 0
KCA2 250812Z 11005KT 29/15 A2988 RMK A01 T02860146  RH  042%=      5-min Rain = 0
KCA2 250813Z 10004KT 29/15 A2988 RMK A01 T02870146  RH  042%=      5-min Rain = 0
KCA2 250814Z 09004KT 29/15 A2988 RMK A01 T02870146  RH  042%=      5-min Rain = 0
KCA2 250815Z 06003KT 29/15 A2988 RMK A01 T02860152  RH  044%=      5-min Rain = 0
KCA2 250816Z 07004KT 29/17 A2988 RMK A01 T02850166  RH  049%=      5-min Rain = 0
KCA2 250817Z 06004KT 28/17 A2988 RMK A01 T02820173  RH  052%=      5-min Rain = 0
KCA2 250818Z 06004KT 28/17 A2988 RMK A01 T02800174  RH  053%=      5-min Rain = 0
KCA2 250819Z 07004KT 28/18 A2988 RMK A01 T02780175  RH  053%=      5-min Rain = 0
KCA2 250820Z 07003KT 28/18 A2988 RMK A01 T02770175  RH  054%=      5-min Rain = 0
KCA2 250821Z 06003KT 28/17 A2988 RMK A01 T02760174  RH  054%=      5-min Rain = 0
KCA2 250822Z 08002KT 28/17 A2988 RMK A01 T02760172  RH  053%=      5-min Rain = 0
KCA2 250823Z 09002KT 28/17 A2988 RMK A01 T02760174  RH  054%=      5-min Rain = 0
KCA2 250824Z 12001KT 28/17 A2989 RMK A01 T02750174  RH  054%=      5-min Rain = 0
KCA2 250825Z 11001KT 28/17 A2989 RMK A01 T02750174  RH  054%=      5-min Rain = 0
KCA2 250826Z 12004KT 28/17 A2989 RMK A01 T02750166  RH  052%=      5-min Rain = 0
KCA2 250827Z 14003KT 28/15 A2989 RMK A01 T02750151  RH  047%=      5-min Rain = 0
KCA2 250828Z 12004KT 28/15 A2989 RMK A01 T02760149  RH  046%=      5-min Rain = 0
KCA2 250829Z 13005KT 28/15 A2989 RMK A01 T02770148  RH  045%=      5-min Rain = 0
KCA2 250830Z 11005KT 28/15 A2988 RMK A01 T02790148  RH  045%=      5-min Rain = 0
KCA2 250831Z 12007KT 28/15 A2988 RMK A01 T02810149  RH  044%=      5-min Rain = 0
KCA2 250832Z 12007KT 28/15 A2988 RMK A01 T02830150  RH  044%=      5-min Rain = 0
KCA2 250833Z 12006KT 28/15 A2988 RMK A01 T02840149  RH  044%=      5-min Rain = 0
KCA2 250834Z 11009KT 28/15 A2988 RMK A01 T02840150  RH  044%=      5-min Rain = 0
KCA2 250835Z 10010KT 29/15 A2988 RMK A01 T02850151  RH  044%=      5-min Rain = 0
KCA2 250836Z 11009KT 29/15 A2988 RMK A01 T02850151  RH  044%=      5-min Rain = 0
KCA2 250837Z 10012KT 29/15 A2988 RMK A01 T02850151  RH  044%=      5-min Rain = 0
KCA2 250838Z 11010KT 29/15 A2988 RMK A01 T02860152  RH  044%=      5-min Rain = 0
KCA2 250839Z 12008KT 29/15 A2988 RMK A01 T02860152  RH  044%=      5-min Rain = 0
KCA2 250840Z 12009KT 29/15 A2988 RMK A01 T02860152  RH  044%=      5-min Rain = 0
KCA2 250841Z 12009G14KT 29/15 A2989 RMK A01 T02850152  RH  044%=      5-min Rain = 0
KCA2 250842Z 12011KT 29/15 A2989 RMK A01 T02850152  RH  044%=      5-min Rain = 0
KCA2 250843Z 11012KT 29/15 A2989 RMK A01 T02850152  RH  044%=      5-min Rain = 0
KCA2 250844Z 11013KT 28/15 A2989 RMK A01 T02840152  RH  044%=      5-min Rain = 0
KCA2 250845Z 12014KT 28/15 A2989 RMK A01 T02840152  RH  045%=      5-min Rain = 0
KCA2 250846Z 12014KT 28/15 A2989 RMK A01 T02840152  RH  045%=      5-min Rain = 0
KCA2 250847Z 11012G17KT 28/15 A2989 RMK A01 T02840152  RH  045%=      5-min Rain = 0
KCA2 250848Z 11014KT 28/15 A2989 RMK A01 T02840153  RH  045%=      5-min Rain = 0
KCA2 250849Z 11010KT 28/15 A2989 RMK A01 T02840153  RH  045%=      5-min Rain = 0
KCA2 250850Z 11010KT 28/15 A2989 RMK A01 T02840153  RH  045%=      5-min Rain = 0
KCA2 250851Z 11011KT 28/15 A2989 RMK A01 T02830154  RH  045%=      5-min Rain = 0
KCA2 250852Z 11008KT 28/15 A2989 RMK A01 T02830154  RH  045%=      5-min Rain = 0
KCA2 250853Z 11010KT 28/15 A2989 RMK A01 T02820154  RH  046%=      5-min Rain = 0
KCA2 250854Z 11012KT 28/16 A2989 RMK A01 T02820155  RH  046%=      5-min Rain = 0
KCA2 250855Z 11011KT 28/16 A2989 RMK A01 T02810155  RH  046%=      5-min Rain = 0
KCA2 250856Z 11010KT 28/16 A2989 RMK A01 T02810156  RH  046%=      5-min Rain = 0
KCA2 250857Z 11009KT 28/16 A2989 RMK A01 T02810156  RH  047%=      5-min Rain = 0
KCA2 250858Z 11010KT 28/16 A2989 RMK A01 T02810156  RH  047%=      5-min Rain = 0
KCA2 250859Z 11011KT 28/16 A2989 RMK A01 T02800157  RH  047%=      5-min Rain = 0
KCA2 250900Z 11009KT 28/16 A2989 RMK A01 T02800157  RH  047%=      5-min Rain = 0
KCA2 250901Z 11011KT 28/16 A2989 RMK A01 T02800158  RH  047%=      5-min Rain = 0
KCA2 250902Z 11012KT 28/16 A299 RMK A01 T02800158  RH  047%=      5-min Rain = 0
KCA2 250903Z 12007KT 28/16 A299 RMK A01 T02800158  RH  048%=      5-min Rain = 0
KCA2 250904Z 11009KT 28/16 A299 RMK A01 T02790158  RH  048%=      5-min Rain = 0
KCA2 250905Z 12008KT 28/16 A299 RMK A01 T02790158  RH  048%=      5-min Rain = 0
KCA2 250906Z 12006KT 28/16 A299 RMK A01 T02780158  RH  048%=      5-min Rain = 0
KCA2 250907Z 12008KT 28/16 A299 RMK A01 T02780157  RH  048%=      5-min Rain = 0
KCA2 250908Z 12008KT 28/16 A299 RMK A01 T02770157  RH  048%=      5-min Rain = 0
KCA2 250909Z 12008KT 28/16 A299 RMK A01 T02780157  RH  048%=      5-min Rain = 0
KCA2 250910Z 11007KT 28/16 A299 RMK A01 T02770156  RH  048%=      5-min Rain = 0
KCA2 250911Z 12008KT 28/16 A299 RMK A01 T02770156  RH  048%=      5-min Rain = 0
KCA2 250912Z 13009KT 28/16 A299 RMK A01 T02770156  RH  048%=      5-min Rain = 0
KCA2 250913Z 13011KT 28/16 A299 RMK A01 T02770155  RH  047%=      5-min Rain = 0
KCA2 250914Z 13012KT 28/15 A299 RMK A01 T02770154  RH  047%=      5-min Rain = 0
KCA2 250915Z 13012KT 28/15 A299 RMK A01 T02770153  RH  047%=      5-min Rain = 0
KCA2 250916Z 13010KT 28/15 A299 RMK A01 T02770154  RH  047%=      5-min Rain = 0
KCA2 250917Z 13011KT 28/15 A299 RMK A01 T02770154  RH  047%=      5-min Rain = 0
KCA2 250918Z 14010KT 28/15 A299 RMK A01 T02770154  RH  047%=      5-min Rain = 0
KCA2 250919Z 15006KT 28/15 A2991 RMK A01 T02770154  RH  047%=      5-min Rain = 0
KCA2 250920Z 15007KT 28/15 A2991 RMK A01 T02760154  RH  047%=      5-min Rain = 0
KCA2 250921Z 15007KT 28/15 A2991 RMK A01 T02750154  RH  048%=      5-min Rain = 0
KCA2 250922Z 15007KT 28/15 A2991 RMK A01 T02750154  RH  048%=      5-min Rain = 0
KCA2 250923Z 15008KT 27/15 A2991 RMK A01 T02740154  RH  048%=      5-min Rain = 0
KCA2 250924Z 15007KT 27/15 A2991 RMK A01 T02730153  RH  048%=      5-min Rain = 0
KCA2 250925Z 15006KT 27/15 A2991 RMK A01 T02730154  RH  048%=      5-min Rain = 0
KCA2 250926Z 14007KT 27/15 A2991 RMK A01 T02730154  RH  048%=      5-min Rain = 0
KCA2 250927Z 15008KT 27/15 A2991 RMK A01 T02720153  RH  048%=      5-min Rain = 0
KCA2 250928Z 14009KT 27/15 A2991 RMK A01 T02720154  RH  048%=      5-min Rain = 0
KCA2 250929Z 15008KT 27/15 A2991 RMK A01 T02720154  RH  048%=      5-min Rain = 0
KCA2 250930Z 15009KT 27/15 A2991 RMK A01 T02710154  RH  049%=      5-min Rain = 0
KCA2 250931Z 15008KT 27/15 A2991 RMK A01 T02710154  RH  049%=      5-min Rain = 0
KCA2 250932Z 14008KT 27/15 A2991 RMK A01 T02700154  RH  049%=      5-min Rain = 0
KCA2 250933Z 14009KT 27/15 A2991 RMK A01 T02700154  RH  049%=      5-min Rain = 0
KCA2 250934Z 14010KT 27/16 A2991 RMK A01 T02690155  RH  049%=      5-min Rain = 0
KCA2 250935Z 14009KT 27/16 A2991 RMK A01 T02700155  RH  050%=      5-min Rain = 0
KCA2 250936Z 14010KT 27/16 A2991 RMK A01 T02690156  RH  050%=      5-min Rain = 0
KCA2 250937Z 14008KT 27/16 A2991 RMK A01 T02690156  RH  050%=      5-min Rain = 0
KCA2 250938Z 14007KT 27/16 A2991 RMK A01 T02690156  RH  050%=      5-min Rain = 0
KCA2 250939Z 14009KT 27/16 A2991 RMK A01 T02680156  RH  050%=      5-min Rain = 0
KCA2 250940Z 14009KT 27/16 A2991 RMK A01 T02680156  RH  050%=      5-min Rain = 0
KCA2 250941Z 15009KT 27/16 A2991 RMK A01 T02680156  RH  050%=      5-min Rain = 0
KCA2 250942Z 14010KT 27/16 A2991 RMK A01 T02670156  RH  050%=      5-min Rain = 0
KCA2 250943Z 14012KT 27/16 A2991 RMK A01 T02670157  RH  051%=      5-min Rain = 0
KCA2 250944Z 14012KT 27/16 A2991 RMK A01 T02670157  RH  051%=      5-min Rain = 0
KCA2 250945Z 13011KT 27/16 A2991 RMK A01 T02670157  RH  051%=      5-min Rain = 0
KCA2 250946Z 13011KT 27/16 A2991 RMK A01 T02670158  RH  051%=      5-min Rain = 0
KCA2 250947Z 13010KT 27/16 A2991 RMK A01 T02670158  RH  051%=      5-min Rain = 0
KCA2 250948Z 14010KT 27/16 A2991 RMK A01 T02670158  RH  051%=      5-min Rain = 0
KCA2 250949Z 14011KT 27/16 A2991 RMK A01 T02660158  RH  051%=      5-min Rain = 0
KCA2 250950Z 14009KT 27/16 A2991 RMK A01 T02670158  RH  051%=      5-min Rain = 0
KCA2 250951Z 14008KT 27/16 A2991 RMK A01 T02670158  RH  051%=      5-min Rain = 0
KCA2 250952Z 13010KT 27/16 A2991 RMK A01 T02660158  RH  051%=      5-min Rain = 0
KCA2 250953Z 14009KT 27/16 A2991 RMK A01 T02670159  RH  051%=      5-min Rain = 0
KCA2 250954Z 14008KT 27/16 A2991 RMK A01 T02670159  RH  051%=      5-min Rain = 0
KCA2 250955Z 14010KT 27/16 A2991 RMK A01 T02660158  RH  051%=      5-min Rain = 0
KCA2 250956Z 14009KT 27/16 A2991 RMK A01 T02650157  RH  051%=      5-min Rain = 0
KCA2 250957Z 14009KT 27/16 A2991 RMK A01 T02660157  RH  051%=      5-min Rain = 0
KCA2 250958Z 14010KT 27/16 A2992 RMK A01 T02650157  RH  051%=      5-min Rain = 0
KCA2 250959Z 13009KT 27/16 A2992 RMK A01 T02650158  RH  052%=      5-min Rain = 0
KCA2 251000Z 14007KT 27/16 A2992 RMK A01 T02650158  RH  052%=      5-min Rain = 0
KCA2 251001Z 13010KT 27/16 A2992 RMK A01 T02650158  RH  052%=      5-min Rain = 0
KCA2 251002Z 13011KT 27/16 A2992 RMK A01 T02650158  RH  052%=      5-min Rain = 0
KCA2 251003Z 13011KT 27/16 A2992 RMK A01 T02650158  RH  052%=      5-min Rain = 0
KCA2 251004Z 13010KT 27/16 A2992 RMK A01 T02660158  RH  051%=      5-min Rain = 0
KCA2 251005Z 12010KT 27/16 A2992 RMK A01 T02670157  RH  051%=      5-min Rain = 0
KCA2 251006Z 12015KT 27/16 A2992 RMK A01 T02680156  RH  050%=      5-min Rain = 0
KCA2 251007Z 12014KT 27/16 A2992 RMK A01 T02680155  RH  050%=      5-min Rain = 0
KCA2 251008Z 12012KT 27/16 A2992 RMK A01 T02690155  RH  049%=      5-min Rain = 0
KCA2 251009Z 12013KT 27/15 A2992 RMK A01 T02690154  RH  049%=      5-min Rain = 0
KCA2 251010Z 12010KT 27/15 A2992 RMK A01 T02690154  RH  049%=      5-min Rain = 0
KCA2 251011Z 12012KT 27/15 A2992 RMK A01 T02690154  RH  049%=      5-min Rain = 0
KCA2 251012Z 12012KT 27/15 A2992 RMK A01 T02690154  RH  049%=      5-min Rain = 0
KCA2 251013Z 12011KT 27/16 A2992 RMK A01 T02690155  RH  050%=      5-min Rain = 0
KCA2 251014Z 12009KT 27/16 A2992 RMK A01 T02690155  RH  050%=      5-min Rain = 0
KCA2 251015Z 12012KT 27/16 A2992 RMK A01 T02680156  RH  050%=      5-min Rain = 0
KCA2 251016Z 12012KT 27/16 A2992 RMK A01 T02680156  RH  050%=      5-min Rain = 0
KCA2 251017Z 12011KT 27/16 A2992 RMK A01 T02670156  RH  050%=      5-min Rain = 0
KCA2 251018Z 12010KT 27/16 A2992 RMK A01 T02670156  RH  051%=      5-min Rain = 0
KCA2 251019Z 12012KT 27/16 A2992 RMK A01 T02670156  RH  051%=      5-min Rain = 0
KCA2 251020Z 12013KT 27/16 A2992 RMK A01 T02670156  RH  051%=      5-min Rain = 0
KCA2 251021Z 12011KT 27/16 A2992 RMK A01 T02660156  RH  051%=      5-min Rain = 0
KCA2 251022Z 12013KT 27/16 A2992 RMK A01 T02660156  RH  051%=      5-min Rain = 0
KCA2 251023Z 12012KT 27/16 A2992 RMK A01 T02660155  RH  051%=      5-min Rain = 0
KCA2 251024Z 12011KT 27/16 A2992 RMK A01 T02660156  RH  051%=      5-min Rain = 0
KCA2 251025Z 12013KT 27/16 A2992 RMK A01 T02660155  RH  051%=      5-min Rain = 0
KCA2 251026Z 12013KT 27/16 A2992 RMK A01 T02650155  RH  051%=      5-min Rain = 0
KCA2 251027Z 12010KT 27/16 A2992 RMK A01 T02650156  RH  051%=      5-min Rain = 0
KCA2 251028Z 12009KT 27/16 A2992 RMK A01 T02650156  RH  051%=      5-min Rain = 0
KCA2 251029Z 12009KT 27/16 A2992 RMK A01 T02650155  RH  051%=      5-min Rain = 0
KCA2 251030Z 12010KT 27/16 A2992 RMK A01 T02650156  RH  051%=      5-min Rain = 0
KCA2 251031Z 12009KT 26/16 A2992 RMK A01 T02640155  RH  051%=      5-min Rain = 0
KCA2 251032Z 12012KT 26/16 A2992 RMK A01 T02640156  RH  051%=      5-min Rain = 0
KCA2 251033Z 12010KT 26/16 A2992 RMK A01 T02640156  RH  051%=      5-min Rain = 0
KCA2 251034Z 12012KT 26/16 A2992 RMK A01 T02640156  RH  051%=      5-min Rain = 0
KCA2 251035Z 13009KT 26/16 A2992 RMK A01 T02640156  RH  051%=      5-min Rain = 0
KCA2 251036Z 13010KT 26/16 A2993 RMK A01 T02640156  RH  051%=      5-min Rain = 0
KCA2 251037Z 12012KT 26/16 A2993 RMK A01 T02640156  RH  051%=      5-min Rain = 0
KCA2 251038Z 11010KT 26/16 A2993 RMK A01 T02640156  RH  051%=      5-min Rain = 0
KCA2 251039Z 13008KT 26/16 A2993 RMK A01 T02640156  RH  051%=      5-min Rain = 0
KCA2 251040Z 12008KT 26/16 A2993 RMK A01 T02640156  RH  051%=      5-min Rain = 0
KCA2 251041Z 13009KT 26/16 A2993 RMK A01 T02640156  RH  051%=      5-min Rain = 0
KCA2 251042Z 12010KT 26/16 A2993 RMK A01 T02630156  RH  052%=      5-min Rain = 0
KCA2 251043Z 12007KT 26/16 A2993 RMK A01 T02630155  RH  052%=      5-min Rain = 0
KCA2 251044Z 12007KT 26/16 A2993 RMK A01 T02630155  RH  052%=      5-min Rain = 0
KCA2 251045Z 12008KT 26/16 A2993 RMK A01 T02630156  RH  052%=      5-min Rain = 0
KCA2 251046Z 12006KT 26/16 A2993 RMK A01 T02620155  RH  052%=      5-min Rain = 0
KCA2 251047Z 12006KT 26/16 A2993 RMK A01 T02620156  RH  052%=      5-min Rain = 0
KCA2 251048Z 11005KT 26/16 A2993 RMK A01 T02620155  RH  052%=      5-min Rain = 0
KCA2 251049Z 11006KT 26/16 A2993 RMK A01 T02620156  RH  052%=      5-min Rain = 0
KCA2 251050Z 12007KT 26/16 A2993 RMK A01 T02620156  RH  052%=      5-min Rain = 0
KCA2 251051Z 13006KT 26/16 A2993 RMK A01 T02620156  RH  052%=      5-min Rain = 0
KCA2 251052Z 12005KT 26/16 A2993 RMK A01 T02620156  RH  052%=      5-min Rain = 0
KCA2 251053Z 12004KT 26/16 A2993 RMK A01 T02610156  RH  052%=      5-min Rain = 0
KCA2 251054Z 12005KT 26/16 A2993 RMK A01 T02610156  RH  052%=      5-min Rain = 0
KCA2 251055Z 11003KT 26/16 A2993 RMK A01 T02610156  RH  052%=      5-min Rain = 0
KCA2 251056Z 13005KT 26/16 A2993 RMK A01 T02600156  RH  052%=      5-min Rain = 0
KCA2 251057Z 15004KT 26/16 A2993 RMK A01 T02600156  RH  053%=      5-min Rain = 0
KCA2 251058Z 17004KT 26/16 A2993 RMK A01 T02600156  RH  053%=      5-min Rain = 0
KCA2 251059Z 18005KT 26/16 A2994 RMK A01 T02590156  RH  053%=      5-min Rain = 0
KCA2 251100Z 20005KT 26/16 A2994 RMK A01 T02580156  RH  053%=      5-min Rain = 0
KCA2 251101Z 20005KT 26/16 A2994 RMK A01 T02570156  RH  054%=      5-min Rain = 0
KCA2 251102Z 20005KT 26/16 A2994 RMK A01 T02560157  RH  054%=      5-min Rain = 0
KCA2 251103Z 19005KT 25/16 A2994 RMK A01 T02540157  RH  055%=      5-min Rain = 0
KCA2 251104Z 18004KT 25/16 A2994 RMK A01 T02530157  RH  055%=      5-min Rain = 0
KCA2 251105Z 18004KT 25/16 A2994 RMK A01 T02530157  RH  055%=      5-min Rain = 0
KCA2 251106Z 18004KT 25/16 A2994 RMK A01 T02520157  RH  055%=      5-min Rain = 0
KCA2 251107Z 18005KT 25/16 A2994 RMK A01 T02520157  RH  055%=      5-min Rain = 0
KCA2 251108Z 18004KT 25/16 A2994 RMK A01 T02520157  RH  055%=      5-min Rain = 0
KCA2 251109Z 18005KT 25/16 A2994 RMK A01 T02520157  RH  055%=      5-min Rain = 0
KCA2 251110Z 18004KT 25/16 A2994 RMK A01 T02530157  RH  055%=      5-min Rain = 0
KCA2 251111Z 17005KT 25/16 A2994 RMK A01 T02520157  RH  055%=      5-min Rain = 0
KCA2 251112Z 17004KT 25/16 A2994 RMK A01 T02520157  RH  055%=      5-min Rain = 0
KCA2 251113Z 17005KT 25/16 A2994 RMK A01 T02520157  RH  055%=      5-min Rain = 0
KCA2 251114Z 17005KT 25/16 A2994 RMK A01 T02520157  RH  055%=      5-min Rain = 0
KCA2 251115Z 17004KT 25/16 A2994 RMK A01 T02520157  RH  056%=      5-min Rain = 0
KCA2 251116Z 16004KT 25/16 A2995 RMK A01 T02520157  RH  056%=      5-min Rain = 0
KCA2 251117Z 16004KT 25/16 A2995 RMK A01 T02510157  RH  056%=      5-min Rain = 0
KCA2 251118Z 16004KT 25/16 A2995 RMK A01 T02510157  RH  056%=      5-min Rain = 0
KCA2 251119Z 16003KT 25/16 A2995 RMK A01 T02510157  RH  056%=      5-min Rain = 0
KCA2 251120Z 16003KT 25/16 A2995 RMK A01 T02510157  RH  056%=      5-min Rain = 0
KCA2 251121Z 17003KT 25/16 A2995 RMK A01 T02500157  RH  056%=      5-min Rain = 0
KCA2 251122Z 16003KT 25/16 A2995 RMK A01 T02500157  RH  056%=      5-min Rain = 0
KCA2 251123Z 17003KT 25/16 A2995 RMK A01 T02500158  RH  056%=      5-min Rain = 0
KCA2 251124Z 17003KT 25/16 A2995 RMK A01 T02500157  RH  056%=      5-min Rain = 0
KCA2 251125Z 17003KT 25/16 A2995 RMK A01 T02500157  RH  056%=      5-min Rain = 0
KCA2 251126Z 16004KT 25/16 A2995 RMK A01 T02500157  RH  056%=      5-min Rain = 0
KCA2 251127Z 16003KT 25/16 A2995 RMK A01 T02500157  RH  057%=      5-min Rain = 0
KCA2 251128Z 15003KT 25/16 A2995 RMK A01 T02500158  RH  057%=      5-min Rain = 0
KCA2 251129Z 15003KT 25/16 A2995 RMK A01 T02500158  RH  057%=      5-min Rain = 0
KCA2 251130Z 14004KT 25/16 A2995 RMK A01 T02490158  RH  057%=      5-min Rain = 0
KCA2 251131Z 14004KT 25/16 A2995 RMK A01 T02490157  RH  057%=      5-min Rain = 0
KCA2 251132Z 14004KT 25/16 A2995 RMK A01 T02490157  RH  057%=      5-min Rain = 0
KCA2 251133Z 14005KT 25/16 A2995 RMK A01 T02480157  RH  057%=      5-min Rain = 0
KCA2 251134Z 14005KT 25/16 A2995 RMK A01 T02480157  RH  057%=      5-min Rain = 0
KCA2 251135Z 14005KT 25/16 A2995 RMK A01 T02480157  RH  057%=      5-min Rain = 0
KCA2 251136Z 14005KT 25/16 A2995 RMK A01 T02470157  RH  057%=      5-min Rain = 0
KCA2 251137Z 14005KT 25/16 A2995 RMK A01 T02470157  RH  057%=      5-min Rain = 0
KCA2 251138Z 14005KT 25/16 A2995 RMK A01 T02470157  RH  057%=      5-min Rain = 0
KCA2 251139Z 14006KT 25/16 A2995 RMK A01 T02460157  RH  057%=      5-min Rain = 0
KCA2 251140Z 13006KT 25/16 A2995 RMK A01 T02460157  RH  057%=      5-min Rain = 0
KCA2 251141Z 13006KT 25/16 A2995 RMK A01 T02460157  RH  057%=      5-min Rain = 0
KCA2 251142Z 13006KT 25/16 A2995 RMK A01 T02460157  RH  057%=      5-min Rain = 0
KCA2 251143Z 13006KT 25/16 A2995 RMK A01 T02460157  RH  057%=      5-min Rain = 0
KCA2 251144Z 13006KT 25/16 A2995 RMK A01 T02460157  RH  058%=      5-min Rain = 0
KCA2 251145Z 13007KT 25/16 A2995 RMK A01 T02460157  RH  058%=      5-min Rain = 0
KCA2 251146Z 13007KT 25/16 A2995 RMK A01 T02460157  RH  058%=      5-min Rain = 0
KCA2 251147Z 13007KT 25/16 A2995 RMK A01 T02460157  RH  058%=      5-min Rain = 0
KCA2 251148Z 12008KT 25/16 A2995 RMK A01 T02460157  RH  058%=      5-min Rain = 0
KCA2 251149Z 12007KT 25/16 A2995 RMK A01 T02460157  RH  057%=      5-min Rain = 0
KCA2 251150Z 11007KT 25/16 A2995 RMK A01 T02470157  RH  057%=      5-min Rain = 0
KCA2 251151Z 10007KT 25/16 A2995 RMK A01 T02480157  RH  057%=      5-min Rain = 0
KCA2 251152Z 10007KT 25/16 A2995 RMK A01 T02480157  RH  057%=      5-min Rain = 0
KCA2 251153Z 10006KT 25/16 A2995 RMK A01 T02490157  RH  057%=      5-min Rain = 0
KCA2 251154Z 09007KT 25/16 A2995 RMK A01 T02490157  RH  056%=      5-min Rain = 0
KCA2 251155Z 09007KT 25/16 A2995 RMK A01 T02500157  RH  056%=      5-min Rain = 0
KCA2 251156Z 09007KT 25/16 A2995 RMK A01 T02500156  RH  056%=      5-min Rain = 0
KCA2 251157Z 09006KT 25/16 A2995 RMK A01 T02500156  RH  056%=      5-min Rain = 0
KCA2 251158Z 10007KT 25/16 A2995 RMK A01 T02500156  RH  056%=      5-min Rain = 0
KCA2 251159Z 09005KT 25/16 A2995 RMK A01 T02510156  RH  056%=      5-min Rain = 0
KCA2 251200Z 10004KT 25/16 A2995 RMK A01 T02520156  RH  055%=      5-min Rain = 0
KCA2 251201Z 09004KT 25/16 A2995 RMK A01 T02530156  RH  055%=      5-min Rain = 0
KCA2 251202Z 11002KT 25/16 A2995 RMK A01 T02530156  RH  055%=      5-min Rain = 0
KCA2 251203Z 20000KT 25/16 A2995 RMK A01 T02530156  RH  055%=      5-min Rain = 0
KCA2 251204Z 22001KT 25/16 A2995 RMK A01 T02530156  RH  055%=      5-min Rain = 0
KCA2 251205Z 24004KT 25/16 A2995 RMK A01 T02530157  RH  055%=      5-min Rain = 0
KCA2 251206Z 24004KT 25/16 A2995 RMK A01 T02510157  RH  056%=      5-min Rain = 0
KCA2 251207Z 25003KT 25/16 A2995 RMK A01 T02480157  RH  057%=      5-min Rain = 0
KCA2 251208Z 23004KT 25/16 A2995 RMK A01 T02470157  RH  057%=      5-min Rain = 0
KCA2 251209Z 19003KT 25/16 A2995 RMK A01 T02460157  RH  058%=      5-min Rain = 0
KCA2 251210Z 16002KT 25/16 A2995 RMK A01 T02450157  RH  058%=      5-min Rain = 0
KCA2 251211Z 21001KT 25/16 A2995 RMK A01 T02450157  RH  058%=      5-min Rain = 0
KCA2 251212Z 20002KT 25/16 A2995 RMK A01 T02450157  RH  058%=      5-min Rain = 0
KCA2 251213Z 19003KT 25/16 A2995 RMK A01 T02450157  RH  058%=      5-min Rain = 0
KCA2 251214Z 19003KT 25/16 A2995 RMK A01 T02450157  RH  058%=      5-min Rain = 0
KCA2 251215Z 18003KT 25/16 A2995 RMK A01 T02450157  RH  058%=      5-min Rain = 0
KCA2 251216Z 17003KT 25/16 A2995 RMK A01 T02450157  RH  058%=      5-min Rain = 0
KCA2 251217Z 18003KT 25/16 A2995 RMK A01 T02450157  RH  058%=      5-min Rain = 0
KCA2 251218Z 18004KT 25/16 A2995 RMK A01 T02460157  RH  058%=      5-min Rain = 0
KCA2 251219Z 19004KT 25/16 A2995 RMK A01 T02460157  RH  058%=      5-min Rain = 0
KCA2 251220Z 19004KT 25/16 A2995 RMK A01 T02470157  RH  057%=      5-min Rain = 0
KCA2 251221Z 20004KT 25/16 A2995 RMK A01 T02480157  RH  057%=      5-min Rain = 0
KCA2 251222Z 20005KT 25/16 A2995 RMK A01 T02480157  RH  057%=      5-min Rain = 0
KCA2 251223Z 21005KT 25/16 A2995 RMK A01 T02480157  RH  057%=      5-min Rain = 0
KCA2 251224Z 20005KT 25/16 A2995 RMK A01 T02490157  RH  057%=      5-min Rain = 0
KCA2 251225Z 20005KT 25/16 A2996 RMK A01 T02490157  RH  057%=      5-min Rain = 0
KCA2 251226Z 20004KT 25/16 A2996 RMK A01 T02490157  RH  056%=      5-min Rain = 0
KCA2 251227Z 20004KT 25/16 A2996 RMK A01 T02490157  RH  056%=      5-min Rain = 0
KCA2 251228Z 19005KT 25/16 A2996 RMK A01 T02490157  RH  056%=      5-min Rain = 0
KCA2 251229Z 19005KT 25/16 A2996 RMK A01 T02500157  RH  056%=      5-min Rain = 0
KCA2 251230Z 18005KT 25/16 A2996 RMK A01 T02500157  RH  056%=      5-min Rain = 0
KCA2 251231Z 18005KT 25/16 A2996 RMK A01 T02500157  RH  056%=      5-min Rain = 0
KCA2 251232Z 18005KT 25/16 A2996 RMK A01 T02500157  RH  056%=      5-min Rain = 0
KCA2 251233Z 17005KT 25/16 A2996 RMK A01 T02500157  RH  056%=      5-min Rain = 0
KCA2 251234Z 17005KT 25/16 A2996 RMK A01 T02500157  RH  056%=      5-min Rain = 0
KCA2 251235Z 16005KT 25/16 A2996 RMK A01 T02510157  RH  056%=      5-min Rain = 0
KCA2 251236Z 16005KT 25/16 A2996 RMK A01 T02510157  RH  056%=      5-min Rain = 0
KCA2 251237Z 16005KT 25/16 A2996 RMK A01 T02510157  RH  056%=      5-min Rain = 0
KCA2 251238Z 16005KT 25/16 A2995 RMK A01 T02510157  RH  056%=      5-min Rain = 0
KCA2 251239Z 16005KT 25/16 A2995 RMK A01 T02520157  RH  056%=      5-min Rain = 0
KCA2 251240Z 16005KT 25/16 A2995 RMK A01 T02520157  RH  056%=      5-min Rain = 0
KCA2 251241Z 16004KT 25/16 A2995 RMK A01 T02520157  RH  055%=      5-min Rain = 0
KCA2 251242Z 16004KT 25/16 A2995 RMK A01 T02530157  RH  055%=      5-min Rain = 0
KCA2 251243Z 15003KT 25/16 A2995 RMK A01 T02540157  RH  055%=      5-min Rain = 0
KCA2 251244Z 16004KT 25/16 A2995 RMK A01 T02540158  RH  055%=      5-min Rain = 0
KCA2 251245Z 16004KT 25/16 A2995 RMK A01 T02540158  RH  055%=      5-min Rain = 0
KCA2 251246Z 15004KT 25/16 A2995 RMK A01 T02540158  RH  055%=      5-min Rain = 0
KCA2 251247Z 15004KT 25/16 A2995 RMK A01 T02540158  RH  055%=      5-min Rain = 0
KCA2 251248Z 15004KT 26/16 A2995 RMK A01 T02550158  RH  055%=      5-min Rain = 0
KCA2 251249Z 15004KT 26/16 A2995 RMK A01 T02550158  RH  055%=      5-min Rain = 0
KCA2 251250Z 14004KT 26/16 A2995 RMK A01 T02560158  RH  055%=      5-min Rain = 0
KCA2 251251Z 13003KT 26/16 A2995 RMK A01 T02560158  RH  055%=      5-min Rain = 0
KCA2 251252Z 13004KT 26/16 A2995 RMK A01 T02560159  RH  055%=      5-min Rain = 0
KCA2 251253Z 12004KT 26/16 A2995 RMK A01 T02570158  RH  054%=      5-min Rain = 0
KCA2 251254Z 12004KT 26/16 A2996 RMK A01 T02570158  RH  054%=      5-min Rain = 0
KCA2 251255Z 12003KT 26/16 A2996 RMK A01 T02580158  RH  054%=      5-min Rain = 0
KCA2 251256Z 13004KT 26/16 A2996 RMK A01 T02580158  RH  054%=      5-min Rain = 0
KCA2 251257Z 13004KT 26/16 A2996 RMK A01 T02590158  RH  054%=      5-min Rain = 0
KCA2 251258Z 13004KT 26/16 A2996 RMK A01 T02590158  RH  053%=      5-min Rain = 0
KCA2 251259Z 13003KT 26/16 A2996 RMK A01 T02590157  RH  053%=      5-min Rain = 0
KCA2 251300Z 13004KT 26/16 A2996 RMK A01 T02600157  RH  053%=      5-min Rain = 0
KCA2 251301Z 13004KT 26/16 A2996 RMK A01 T02600157  RH  053%=      5-min Rain = 0
KCA2 251302Z 13004KT 26/16 A2996 RMK A01 T02600157  RH  053%=      5-min Rain = 0
KCA2 251303Z 13003KT 26/16 A2996 RMK A01 T02610157  RH  053%=      5-min Rain = 0
KCA2 251304Z 14003KT 26/16 A2996 RMK A01 T02610157  RH  053%=      5-min Rain = 0
KCA2 251305Z 14003KT 26/16 A2996 RMK A01 T02610158  RH  053%=      5-min Rain = 0
KCA2 251306Z 16003KT 26/16 A2996 RMK A01 T02610158  RH  053%=      5-min Rain = 0
KCA2 251307Z 16003KT 26/16 A2996 RMK A01 T02620157  RH  052%=      5-min Rain = 0
KCA2 251308Z 16002KT 26/16 A2996 RMK A01 T02620158  RH  053%=      5-min Rain = 0
KCA2 251309Z 16002KT 26/16 A2996 RMK A01 T02630158  RH  052%=      5-min Rain = 0
KCA2 251310Z 17002KT 26/16 A2996 RMK A01 T02640157  RH  052%=      5-min Rain = 0
KCA2 251311Z 15003KT 26/16 A2996 RMK A01 T02640158  RH  052%=      5-min Rain = 0
KCA2 251312Z 15003KT 26/16 A2996 RMK A01 T02640157  RH  052%=      5-min Rain = 0
KCA2 251313Z 16002KT 27/16 A2996 RMK A01 T02650158  RH  052%=      5-min Rain = 0
KCA2 251314Z 16002KT 27/16 A2996 RMK A01 T02650158  RH  052%=      5-min Rain = 0
KCA2 251315Z 16003KT 27/16 A2997 RMK A01 T02660157  RH  051%=      5-min Rain = 0
KCA2 251316Z 17003KT 27/16 A2997 RMK A01 T02670156  RH  051%=      5-min Rain = 0
KCA2 251317Z 16003KT 27/16 A2997 RMK A01 T02670157  RH  051%=      5-min Rain = 0
KCA2 251318Z 15002KT 27/16 A2997 RMK A01 T02670157  RH  051%=      5-min Rain = 0
KCA2 251319Z 16002KT 27/16 A2997 RMK A01 T02670157  RH  051%=      5-min Rain = 0
KCA2 251320Z 15002KT 27/16 A2997 RMK A01 T02670157  RH  051%=      5-min Rain = 0
KCA2 251321Z 15001KT 27/16 A2997 RMK A01 T02680158  RH  051%=      5-min Rain = 0
KCA2 251322Z 15002KT 27/16 A2997 RMK A01 T02690158  RH  051%=      5-min Rain = 0
KCA2 251323Z 13002KT 27/16 A2997 RMK A01 T02700158  RH  050%=      5-min Rain = 0
KCA2 251324Z 13002KT 27/16 A2997 RMK A01 T02710158  RH  050%=      5-min Rain = 0
KCA2 251325Z 11004KT 27/16 A2997 RMK A01 T02710158  RH  050%=      5-min Rain = 0
KCA2 251326Z 11003KT 27/16 A2997 RMK A01 T02710157  RH  050%=      5-min Rain = 0
KCA2 251327Z 14003KT 27/16 A2997 RMK A01 T02720157  RH  050%=      5-min Rain = 0
KCA2 251328Z 16002KT 27/16 A2997 RMK A01 T02720157  RH  049%=      5-min Rain = 0
KCA2 251329Z 14003KT 27/16 A2997 RMK A01 T02720156  RH  049%=      5-min Rain = 0
KCA2 251330Z 13004KT 27/16 A2997 RMK A01 T02730156  RH  049%=      5-min Rain = 0
KCA2 251331Z 13004KT 27/16 A2997 RMK A01 T02740157  RH  049%=      5-min Rain = 0
KCA2 251332Z 14003KT 27/16 A2997 RMK A01 T02740157  RH  049%=      5-min Rain = 0
KCA2 251333Z 14003KT 28/16 A2997 RMK A01 T02750156  RH  048%=      5-min Rain = 0
KCA2 251334Z 15002KT 28/16 A2997 RMK A01 T02750156  RH  048%=      5-min Rain = 0
KCA2 251335Z 15003KT 28/16 A2997 RMK A01 T02750157  RH  049%=      5-min Rain = 0
KCA2 251336Z 15003KT 28/16 A2997 RMK A01 T02750157  RH  049%=      5-min Rain = 0
KCA2 251337Z 13003KT 28/16 A2997 RMK A01 T02760157  RH  048%=      5-min Rain = 0
KCA2 251338Z 14005KT 28/16 A2997 RMK A01 T02770156  RH  048%=      5-min Rain = 0
KCA2 251339Z 12005KT 28/16 A2997 RMK A01 T02770156  RH  048%=      5-min Rain = 0
KCA2 251340Z 12005KT 28/16 A2997 RMK A01 T02760156  RH  048%=      5-min Rain = 0
KCA2 251341Z 14003KT 28/16 A2997 RMK A01 T02750156  RH  048%=      5-min Rain = 0
KCA2 251342Z 16003KT 27/16 A2997 RMK A01 T02740156  RH  049%=      5-min Rain = 0
KCA2 251343Z 12005KT 28/16 A2997 RMK A01 T02750155  RH  048%=      5-min Rain = 0
KCA2 251344Z 15004KT 28/16 A2998 RMK A01 T02770156  RH  048%=      5-min Rain = 0
KCA2 251345Z 15008KT 28/16 A2997 RMK A01 T02780155  RH  047%=      5-min Rain = 0
KCA2 251346Z 15008KT 28/15 A2998 RMK A01 T02790154  RH  047%=      5-min Rain = 0
KCA2 251347Z 14009KT 28/15 A2998 RMK A01 T02790153  RH  046%=      5-min Rain = 0
KCA2 251348Z 14009KT 28/15 A2998 RMK A01 T02780154  RH  047%=      5-min Rain = 0
KCA2 251349Z 13009KT 28/15 A2998 RMK A01 T02780153  RH  047%=      5-min Rain = 0
KCA2 251350Z 14007KT 28/15 A2998 RMK A01 T02780154  RH  047%=      5-min Rain = 0
KCA2 251351Z 15008KT 28/15 A2998 RMK A01 T02770153  RH  047%=      5-min Rain = 0
KCA2 251352Z 14007KT 28/15 A2998 RMK A01 T02770154  RH  047%=      5-min Rain = 0
KCA2 251353Z 14009KT 28/15 A2998 RMK A01 T02790153  RH  046%=      5-min Rain = 0
KCA2 251354Z 14007KT 28/15 A2998 RMK A01 T02790153  RH  046%=      5-min Rain = 0
KCA2 251355Z 14008KT 28/15 A2998 RMK A01 T02780153  RH  047%=      5-min Rain = 0
KCA2 251356Z 15008KT 28/15 A2998 RMK A01 T02780153  RH  046%=      5-min Rain = 0
KCA2 251357Z 14009KT 28/15 A2998 RMK A01 T02770153  RH  047%=      5-min Rain = 0
KCA2 251358Z 15008KT 28/15 A2998 RMK A01 T02760153  RH  047%=      5-min Rain = 0
KCA2 251359Z 16008KT 28/15 A2998 RMK A01 T02770153  RH  047%=      5-min Rain = 0
KCA2 251400Z 15007KT 28/15 A2998 RMK A01 T02780153  RH  047%=      5-min Rain = 0
KCA2 251401Z 14006KT 28/15 A2998 RMK A01 T02790154  RH  046%=      5-min Rain = 0
KCA2 251402Z 14006KT 28/15 A2998 RMK A01 T02800154  RH  046%=      5-min Rain = 0
KCA2 251403Z 14007KT 28/15 A2998 RMK A01 T02810154  RH  046%=      5-min Rain = 0
KCA2 251404Z 13009KT 28/15 A2998 RMK A01 T02810154  RH  046%=      5-min Rain = 0
KCA2 251405Z 13008KT 28/15 A2998 RMK A01 T02810154  RH  046%=      5-min Rain = 0
KCA2 251406Z 13010KT 28/15 A2998 RMK A01 T02810154  RH  046%=      5-min Rain = 0
KCA2 251407Z 14010KT 28/15 A2998 RMK A01 T02810154  RH  046%=      5-min Rain = 0
KCA2 251408Z 13008KT 28/15 A2998 RMK A01 T02810154  RH  046%=      5-min Rain = 0
KCA2 251409Z 14006KT 28/16 A2998 RMK A01 T02820155  RH  046%=      5-min Rain = 0
KCA2 251410Z 14007KT 28/16 A2998 RMK A01 T02830155  RH  046%=      5-min Rain = 0
KCA2 251411Z 12007KT 29/16 A2998 RMK A01 T02850155  RH  045%=      5-min Rain = 0
KCA2 251412Z 13008KT 29/16 A2998 RMK A01 T02860155  RH  045%=      5-min Rain = 0
KCA2 251413Z 13010KT 29/16 A2998 RMK A01 T02850155  RH  045%=      5-min Rain = 0
KCA2 251414Z 14007KT 28/15 A2998 RMK A01 T02840154  RH  045%=      5-min Rain = 0
KCA2 251415Z 15006KT 28/16 A2998 RMK A01 T02840155  RH  046%=      5-min Rain = 0
KCA2 251416Z 14010KT 29/16 A2998 RMK A01 T02850156  RH  045%=      5-min Rain = 0
KCA2 251417Z 13012KT 29/16 A2998 RMK A01 T02860155  RH  045%=      5-min Rain = 0
KCA2 251418Z 13010KT 29/15 A2998 RMK A01 T02850154  RH  045%=      5-min Rain = 0
KCA2 251419Z 14013KT 29/15 A2998 RMK A01 T02850154  RH  045%=      5-min Rain = 0
KCA2 251420Z 15010KT 29/15 A2998 RMK A01 T02850154  RH  045%=      5-min Rain = 0
KCA2 251421Z 14011KT 29/16 A2998 RMK A01 T02860155  RH  045%=      5-min Rain = 0
KCA2 251422Z 14012KT 29/15 A2998 RMK A01 T02860154  RH  045%=      5-min Rain = 0
KCA2 251423Z 13009G14KT 29/16 A2998 RMK A01 T02860156  RH  045%=      5-min Rain = 0
KCA2 251424Z 14012KT 29/16 A2998 RMK A01 T02870155  RH  045%=      5-min Rain = 0
KCA2 251425Z 15014KT 29/16 A2998 RMK A01 T02880155  RH  045%=      5-min Rain = 0
KCA2 251426Z 13008KT 29/16 A2998 RMK A01 T02880156  RH  045%=      5-min Rain = 0
KCA2 251427Z 14011G17KT 29/16 A2998 RMK A01 T02880155  RH  044%=      5-min Rain = 0
KCA2 251428Z 14014KT 29/16 A2998 RMK A01 T02880156  RH  045%=      5-min Rain = 0
KCA2 251429Z 14013G18KT 29/15 A2999 RMK A01 T02870154  RH  044%=      5-min Rain = 0
KCA2 251430Z 15010KT 29/16 A2999 RMK A01 T02860155  RH  045%=      5-min Rain = 0
KCA2 251431Z 15010KT 29/16 A2999 RMK A01 T02850155  RH  045%=      5-min Rain = 0
KCA2 251432Z 15012KT 29/16 A2999 RMK A01 T02860155  RH  045%=      5-min Rain = 0
KCA2 251433Z 14012KT 29/16 A2999 RMK A01 T02870156  RH  045%=      5-min Rain = 0
KCA2 251434Z 14009KT 29/16 A2999 RMK A01 T02860155  RH  045%=      5-min Rain = 0
KCA2 251435Z 15008KT 29/16 A2999 RMK A01 T02870156  RH  045%=      5-min Rain = 0
KCA2 251436Z 15009KT 29/16 A2999 RMK A01 T02870156  RH  045%=      5-min Rain = 0
KCA2 251437Z 14012KT 29/16 A2999 RMK A01 T02870156  RH  045%=      5-min Rain = 0
KCA2 251438Z 14013KT 29/16 A2999 RMK A01 T02870156  RH  045%=      5-min Rain = 0
KCA2 251439Z 14012KT 29/16 A2999 RMK A01 T02870155  RH  045%=      5-min Rain = 0
KCA2 251440Z 13010KT 29/16 A2999 RMK A01 T02870156  RH  045%=      5-min Rain = 0
KCA2 251441Z 14012G17KT 29/16 A2999 RMK A01 T02870156  RH  045%=      5-min Rain = 0
KCA2 251442Z 13009KT 29/16 A2999 RMK A01 T02880156  RH  045%=      5-min Rain = 0
KCA2 251443Z 15010KT 29/16 A2999 RMK A01 T02880157  RH  045%=      5-min Rain = 0
KCA2 251444Z 13010KT 29/16 A2998 RMK A01 T02890157  RH  045%=      5-min Rain = 0
KCA2 251445Z 13010KT 29/16 A2999 RMK A01 T02880156  RH  045%=      5-min Rain = 0
KCA2 251446Z 15011KT 29/16 A2998 RMK A01 T02860155  RH  045%=      5-min Rain = 0
KCA2 251447Z 15011KT 29/15 A2998 RMK A01 T02860154  RH  045%=      5-min Rain = 0
KCA2 251448Z 15010KT 29/16 A2998 RMK A01 T02870155  RH  045%=      5-min Rain = 0
KCA2 251449Z 15009KT 29/16 A2998 RMK A01 T02870155  RH  045%=      5-min Rain = 0
KCA2 251450Z 16011KT 29/16 A2998 RMK A01 T02870156  RH  045%=      5-min Rain = 0
KCA2 251451Z 15012KT 29/16 A2998 RMK A01 T02880155  RH  044%=      5-min Rain = 0
KCA2 251452Z 15011KT 29/16 A2998 RMK A01 T02880155  RH  044%=      5-min Rain = 0
KCA2 251453Z 15012KT 29/15 A2998 RMK A01 T02870154  RH  044%=      5-min Rain = 0
KCA2 251454Z 15011KT 29/15 A2998 RMK A01 T02870154  RH  044%=      5-min Rain = 0
KCA2 251455Z 13010KT 29/15 A2998 RMK A01 T02890154  RH  044%=      5-min Rain = 0
KCA2 251456Z 13013KT 29/15 A2998 RMK A01 T02890153  RH  044%=      5-min Rain = 0
KCA2 251457Z 14011KT 29/15 A2998 RMK A01 T02890154  RH  044%=      5-min Rain = 0
KCA2 251458Z 15009KT 29/15 A2998 RMK A01 T02900154  RH  044%=      5-min Rain = 0
KCA2 251459Z 15012KT 29/15 A2998 RMK A01 T02910154  RH  043%=      5-min Rain = 0
KCA2 251500Z 15011KT 29/15 A2998 RMK A01 T02900154  RH  043%=      5-min Rain = 0
KCA2 251501Z 15012KT 29/15 A2998 RMK A01 T02900154  RH  044%=      5-min Rain = 0
KCA2 251502Z 15010KT 29/15 A2998 RMK A01 T02900154  RH  044%=      5-min Rain = 0
KCA2 251503Z 17014KT 29/15 A2998 RMK A01 T02900154  RH  044%=      5-min Rain = 0
KCA2 251504Z 16012KT 29/15 A2998 RMK A01 T02900153  RH  043%=      5-min Rain = 0
KCA2 251505Z 14011KT 29/15 A2998 RMK A01 T02900153  RH  043%=      5-min Rain = 0
KCA2 251506Z 15010KT 29/15 A2998 RMK A01 T02910152  RH  043%=      5-min Rain = 0
KCA2 251507Z 14009KT 29/15 A2998 RMK A01 T02920153  RH  043%=      5-min Rain = 0
KCA2 251508Z 13010KT 29/15 A2998 RMK A01 T02930153  RH  043%=      5-min Rain = 0
KCA2 251509Z 13007KT 29/15 A2998 RMK A01 T02940153  RH  042%=      5-min Rain = 0
KCA2 251510Z 14007KT 29/15 A2998 RMK A01 T02930153  RH  042%=      5-min Rain = 0
KCA2 251511Z 16009KT 29/15 A2998 RMK A01 T02940154  RH  042%=      5-min Rain = 0
KCA2 251512Z 15012KT 30/15 A2998 RMK A01 T02950153  RH  042%=      5-min Rain = 0
KCA2 251513Z 14012KT 30/15 A2998 RMK A01 T02960153  RH  042%=      5-min Rain = 0
KCA2 251514Z 14008KT 29/15 A2998 RMK A01 T02940152  RH  042%=      5-min Rain = 0
KCA2 251515Z 14007KT 30/15 A2998 RMK A01 T02950153  RH  042%=      5-min Rain = 0
KCA2 251516Z 12011KT 30/15 A2998 RMK A01 T02970152  RH  041%=      5-min Rain = 0
KCA2 251517Z 13010KT 30/15 A2998 RMK A01 T02970152  RH  041%=      5-min Rain = 0
KCA2 251518Z 15008KT 30/15 A2998 RMK A01 T02950152  RH  042%=      5-min Rain = 0
KCA2 251519Z 15007KT 30/15 A2998 RMK A01 T02950154  RH  042%=      5-min Rain = 0
KCA2 251520Z 16012KT 30/15 A2998 RMK A01 T02970154  RH  042%=      5-min Rain = 0
KCA2 251521Z 14012KT 30/15 A2998 RMK A01 T02990153  RH  041%=      5-min Rain = 0
KCA2 251522Z 14012KT 30/15 A2998 RMK A01 T02960151  RH  041%=      5-min Rain = 0
KCA2 251523Z 15008KT 29/15 A2998 RMK A01 T02940152  RH  042%=      5-min Rain = 0
KCA2 251524Z 14010KT 30/15 A2998 RMK A01 T02950152  RH  042%=      5-min Rain = 0
KCA2 251525Z 13009KT 30/15 A2998 RMK A01 T02950151  RH  042%=      5-min Rain = 0
KCA2 251526Z 15008KT 29/15 A2998 RMK A01 T02940153  RH  042%=      5-min Rain = 0
KCA2 251527Z 16012KT 30/15 A2998 RMK A01 T02970153  RH  042%=      5-min Rain = 0
KCA2 251528Z 16011KT 30/15 A2998 RMK A01 T02960152  RH  042%=      5-min Rain = 0
KCA2 251529Z 15008KT 29/15 A2998 RMK A01 T02940154  RH  043%=      5-min Rain = 0
KCA2 251530Z 13009KT 30/15 A2999 RMK A01 T02960154  RH  042%=      5-min Rain = 0
KCA2 251531Z 12011KT 30/15 A2999 RMK A01 T02970153  RH  042%=      5-min Rain = 0
KCA2 251532Z 13010KT 30/15 A2999 RMK A01 T02960153  RH  042%=      5-min Rain = 0
KCA2 251533Z 14009KT 29/15 A2999 RMK A01 T02930153  RH  043%=      5-min Rain = 0
KCA2 251534Z 14007KT 29/15 A2999 RMK A01 T02930152  RH  042%=      5-min Rain = 0
KCA2 251535Z 17008KT 29/15 A2999 RMK A01 T02940153  RH  042%=      5-min Rain = 0
KCA2 251536Z 16008KT 30/15 A2999 RMK A01 T02960154  RH  042%=      5-min Rain = 0
KCA2 251537Z 15007KT 30/15 A2999 RMK A01 T02980154  RH  042%=      5-min Rain = 0
KCA2 251538Z 17010KT 30/16 A2998 RMK A01 T02990155  RH  042%=      5-min Rain = 0
KCA2 251539Z 14013KT 30/16 A2998 RMK A01 T02990155  RH  042%=      5-min Rain = 0
KCA2 251540Z 14011KT 30/15 A2999 RMK A01 T02990154  RH  041%=      5-min Rain = 0
KCA2 251541Z 14013KT 30/16 A2998 RMK A01 T02990155  RH  042%=      5-min Rain = 0
KCA2 251542Z 13010KT 30/16 A2999 RMK A01 T02980155  RH  042%=      5-min Rain = 0
KCA2 251543Z 12010KT 30/15 A2999 RMK A01 T02980154  RH  042%=      5-min Rain = 0
KCA2 251544Z 13011KT 30/15 A2999 RMK A01 T02980154  RH  042%=      5-min Rain = 0
KCA2 251545Z 12008G14KT 30/15 A2999 RMK A01 T02980153  RH  041%=      5-min Rain = 0
KCA2 251546Z 13010KT 30/15 A2998 RMK A01 T02960154  RH  042%=      5-min Rain = 0
KCA2 251547Z 12011KT 30/16 A2998 RMK A01 T02980155  RH  042%=      5-min Rain = 0
KCA2 251548Z 12010KT 30/15 A2998 RMK A01 T02990154  RH  041%=      5-min Rain = 0
KCA2 251549Z 13010KT 30/16 A2998 RMK A01 T02980155  RH  042%=      5-min Rain = 0
KCA2 251550Z 13007KT 30/16 A2999 RMK A01 T02980155  RH  042%=      5-min Rain = 0
KCA2 251551Z 11008KT 30/16 A2998 RMK A01 T02980155  RH  042%=      5-min Rain = 0
KCA2 251552Z 13008KT 30/16 A2998 RMK A01 T02990155  RH  042%=      5-min Rain = 0
KCA2 251553Z 14010KT 30/16 A2998 RMK A01 T03010155  RH  041%=      5-min Rain = 0
KCA2 251554Z 12011KT 30/16 A2999 RMK A01 T03010155  RH  041%=      5-min Rain = 0
KCA2 251555Z 11010KT 30/16 A2999 RMK A01 T03010155  RH  041%=      5-min Rain = 0
KCA2 251556Z 10010KT 30/16 A2998 RMK A01 T03010155  RH  041%=      5-min Rain = 0
KCA2 251557Z 12011KT 30/15 A2998 RMK A01 T03000154  RH  041%=      5-min Rain = 0
KCA2 251558Z 12010KT 30/15 A2998 RMK A01 T03000154  RH  041%=      5-min Rain = 0
KCA2 251559Z 11008KT 30/15 A2998 RMK A01 T02980154  RH  042%=      5-min Rain = 0
KCA2 251600Z 11009KT 30/15 A2998 RMK A01 T02990154  RH  042%=      5-min Rain = 0
KCA2 251601Z 12009KT 30/15 A2998 RMK A01 T03020154  RH  041%=      5-min Rain = 0
KCA2 251602Z 14010KT 30/16 A2998 RMK A01 T03020155  RH  041%=      5-min Rain = 0
KCA2 251603Z 13010KT 30/15 A2998 RMK A01 T03020154  RH  041%=      5-min Rain = 0
KCA2 251604Z 13008KT 30/15 A2998 RMK A01 T03010154  RH  041%=      5-min Rain = 0
KCA2 251605Z 14006KT 30/16 A2998 RMK A01 T03010155  RH  041%=      5-min Rain = 0
KCA2 251606Z 13010KT 30/16 A2998 RMK A01 T03020155  RH  041%=      5-min Rain = 0
KCA2 251607Z 13012KT 30/15 A2998 RMK A01 T03030154  RH  041%=      5-min Rain = 0
KCA2 251608Z 13010KT 30/15 A2998 RMK A01 T03020154  RH  041%=      5-min Rain = 0
KCA2 251609Z 13010KT 30/16 A2998 RMK A01 T03010155  RH  041%=      5-min Rain = 0
KCA2 251610Z 13008KT 30/15 A2998 RMK A01 T03020154  RH  041%=      5-min Rain = 0
KCA2 251611Z 14007KT 30/16 A2998 RMK A01 T03020155  RH  041%=      5-min Rain = 0
KCA2 251612Z 15007KT 30/16 A2998 RMK A01 T03030155  RH  041%=      5-min Rain = 0
KCA2 251613Z 15008KT 30/16 A2997 RMK A01 T03030155  RH  041%=      5-min Rain = 0
KCA2 251614Z 12009KT 31/16 A2997 RMK A01 T03050155  RH  040%=      5-min Rain = 0
KCA2 251615Z 10009KT 31/16 A2997 RMK A01 T03060155  RH  040%=      5-min Rain = 0
KCA2 251616Z 09009KT 31/15 A2997 RMK A01 T03050154  RH  040%=      5-min Rain = 0
KCA2 251617Z 13010KT 30/16 A2997 RMK A01 T03040155  RH  040%=      5-min Rain = 0
KCA2 251618Z 13006KT 31/15 A2997 RMK A01 T03050153  RH  040%=      5-min Rain = 0
KCA2 251619Z 12008KT 31/16 A2997 RMK A01 T03050155  RH  040%=      5-min Rain = 0
KCA2 251620Z 13009KT 31/16 A2997 RMK A01 T03060156  RH  040%=      5-min Rain = 0
KCA2 251621Z 14011KT 31/16 A2997 RMK A01 T03070155  RH  040%=      5-min Rain = 0
KCA2 251622Z 13009KT 31/16 A2997 RMK A01 T03080155  RH  040%=      5-min Rain = 0
KCA2 251623Z 12007KT 31/16 A2997 RMK A01 T03070155  RH  040%=      5-min Rain = 0
KCA2 251624Z 16008KT 31/16 A2997 RMK A01 T03070156  RH  040%=      5-min Rain = 0
KCA2 251625Z 17009KT 31/16 A2997 RMK A01 T03070155  RH  040%=      5-min Rain = 0
KCA2 251626Z 17007KT 31/15 A2997 RMK A01 T03060154  RH  040%=      5-min Rain = 0
KCA2 251627Z 17006G11KT 31/15 A2997 RMK A01 T03050153  RH  040%=      5-min Rain = 0
KCA2 251628Z 14007KT 31/15 A2997 RMK A01 T03060154  RH  040%=      5-min Rain = 0
KCA2 251629Z 09007KT 31/16 A2997 RMK A01 T03070155  RH  040%=      5-min Rain = 0
KCA2 251630Z 09006KT 31/16 A2996 RMK A01 T03090157  RH  040%=      5-min Rain = 0
KCA2 251631Z 13008KT 31/16 A2996 RMK A01 T03110158  RH  040%=      5-min Rain = 0
KCA2 251632Z 15010KT 32/16 A2996 RMK A01 T03150159  RH  039%=      5-min Rain = 0
KCA2 251633Z 15008KT 32/16 A2997 RMK A01 T03160156  RH  038%=      5-min Rain = 0
KCA2 251634Z 15009KT 31/16 A2996 RMK A01 T03130157  RH  039%=      5-min Rain = 0
KCA2 251635Z 13009KT 31/16 A2996 RMK A01 T03120158  RH  039%=      5-min Rain = 0
KCA2 251636Z 15009KT 31/16 A2996 RMK A01 T03130157  RH  039%=      5-min Rain = 0
KCA2 251637Z 15005KT 31/16 A2996 RMK A01 T03120156  RH  039%=      5-min Rain = 0
KCA2 251638Z 11008KT 31/16 A2996 RMK A01 T03110157  RH  039%=      5-min Rain = 0
KCA2 251639Z 09007KT 31/16 A2996 RMK A01 T03100157  RH  040%=      5-min Rain = 0
KCA2 251640Z 13008KT 31/16 A2996 RMK A01 T03110157  RH  040%=      5-min Rain = 0
KCA2 251641Z 10009KT 31/16 A2996 RMK A01 T03140158  RH  039%=      5-min Rain = 0
KCA2 251642Z 10008KT 32/16 A2996 RMK A01 T03170157  RH  038%=      5-min Rain = 0
KCA2 251643Z 10007KT 32/16 A2996 RMK A01 T03180157  RH  038%=      5-min Rain = 0
KCA2 251644Z 14006KT 32/16 A2996 RMK A01 T03190158  RH  038%=      5-min Rain = 0
KCA2 251645Z 14007KT 32/16 A2996 RMK A01 T03190158  RH  038%=      5-min Rain = 0
KCA2 251646Z 12007KT 32/16 A2996 RMK A01 T03200159  RH  038%=      5-min Rain = 0
KCA2 251647Z 15008KT 32/16 A2996 RMK A01 T03210157  RH  037%=      5-min Rain = 0
KCA2 251648Z 15010KT 32/16 A2996 RMK A01 T03210155  RH  037%=      5-min Rain = 0
KCA2 251649Z 12009KT 32/16 A2996 RMK A01 T03190156  RH  037%=      5-min Rain = 0
KCA2 251650Z 11008KT 32/15 A2996 RMK A01 T03190154  RH  037%=      5-min Rain = 0
KCA2 251651Z 13008KT 32/16 A2996 RMK A01 T03180155  RH  037%=      5-min Rain = 0
KCA2 251652Z 13010KT 32/15 A2996 RMK A01 T03190154  RH  037%=      5-min Rain = 0
KCA2 251653Z 15008KT 32/16 A2996 RMK A01 T03170156  RH  038%=      5-min Rain = 0
KCA2 251654Z 15007KT 32/16 A2996 RMK A01 T03180156  RH  038%=      5-min Rain = 0
KCA2 251655Z 17008KT 32/15 A2996 RMK A01 T03190154  RH  037%=      5-min Rain = 0
KCA2 251656Z 16005KT 32/16 A2996 RMK A01 T03190155  RH  037%=      5-min Rain = 0
KCA2 251657Z 17006KT 32/16 A2996 RMK A01 T03220156  RH  037%=      5-min Rain = 0
KCA2 251658Z 14007KT 32/15 A2996 RMK A01 T03240154  RH  036%=      5-min Rain = 0
KCA2 251659Z 10002KT 32/15 A2996 RMK A01 T03200153  RH  036%=      5-min Rain = 0
KCA2 251700Z 16004KT 32/15 A2996 RMK A01 T03160153  RH  037%=      5-min Rain = 0
KCA2 251701Z 17005KT 32/15 A2996 RMK A01 T03160154  RH  038%=      5-min Rain = 0
KCA2 251702Z 14008KT 32/15 A2995 RMK A01 T03170154  RH  037%=      5-min Rain = 0
KCA2 251703Z 14006KT 32/15 A2995 RMK A01 T03190153  RH  037%=      5-min Rain = 0
KCA2 251704Z 12007KT 32/15 A2995 RMK A01 T03200154  RH  037%=      5-min Rain = 0
KCA2 251705Z 15007KT 32/15 A2995 RMK A01 T03210153  RH  036%=      5-min Rain = 0
KCA2 251706Z 14005KT 32/15 A2995 RMK A01 T03240153  RH  036%=      5-min Rain = 0
KCA2 251707Z 13005KT 33/15 A2995 RMK A01 T03260153  RH  035%=      5-min Rain = 0
KCA2 251708Z 16008KT 33/15 A2995 RMK A01 T03250153  RH  036%=      5-min Rain = 0
KCA2 251709Z 18009KT 32/15 A2995 RMK A01 T03230153  RH  036%=      5-min Rain = 0
KCA2 251710Z 15009KT 32/15 A2995 RMK A01 T03220152  RH  036%=      5-min Rain = 0
KCA2 251711Z 15009KT 32/15 A2995 RMK A01 T03210151  RH  036%=      5-min Rain = 0
KCA2 251712Z 16007KT 32/15 A2995 RMK A01 T03190151  RH  036%=      5-min Rain = 0
KCA2 251713Z 17006KT 32/15 A2995 RMK A01 T03200150  RH  036%=      5-min Rain = 0
KCA2 251714Z 15005KT 32/15 A2995 RMK A01 T03220151  RH  036%=      5-min Rain = 0
KCA2 251715Z 14008KT 32/15 A2995 RMK A01 T03240152  RH  035%=      5-min Rain = 0
KCA2 251716Z 15005KT 32/15 A2995 RMK A01 T03240149  RH  035%=      5-min Rain = 0
KCA2 251717Z 14007KT 32/15 A2995 RMK A01 T03230151  RH  036%=      5-min Rain = 0
KCA2 251718Z 14010KT 32/15 A2995 RMK A01 T03230153  RH  036%=      5-min Rain = 0
KCA2 251719Z 13010KT 32/15 A2995 RMK A01 T03240151  RH  035%=      5-min Rain = 0
KCA2 251720Z 14007KT 32/15 A2995 RMK A01 T03240150  RH  035%=      5-min Rain = 0
KCA2 251721Z 14008KT 32/15 A2995 RMK A01 T03240152  RH  035%=      5-min Rain = 0
KCA2 251722Z 14007KT 33/15 A2995 RMK A01 T03260150  RH  035%=      5-min Rain = 0
KCA2 251723Z 13003KT 32/15 A2995 RMK A01 T03230150  RH  035%=      5-min Rain = 0
KCA2 251724Z 12004KT 32/15 A2995 RMK A01 T03210150  RH  036%=      5-min Rain = 0
KCA2 251725Z 15006KT 32/15 A2995 RMK A01 T03230150  RH  035%=      5-min Rain = 0
KCA2 251726Z 15006KT 33/15 A2995 RMK A01 T03250150  RH  035%=      5-min Rain = 0
KCA2 251727Z 13003KT 33/15 A2994 RMK A01 T03270150  RH  034%=      5-min Rain = 0
KCA2 251728Z 15005KT 33/15 A2994 RMK A01 T03280150  RH  034%=      5-min Rain = 0
KCA2 251729Z 13008KT 33/15 A2994 RMK A01 T03280153  RH  035%=      5-min Rain = 0
KCA2 251730Z 12008KT 33/16 A2994 RMK A01 T03290155  RH  035%=      5-min Rain = 0
KCA2 251731Z 11009KT 33/15 A2994 RMK A01 T03310154  RH  035%=      5-min Rain = 0
KCA2 251732Z 12008KT 33/15 A2994 RMK A01 T03300154  RH  035%=      5-min Rain = 0
KCA2 251733Z 13006KT 33/15 A2994 RMK A01 T03290154  RH  035%=      5-min Rain = 0
KCA2 251734Z 15007KT 33/15 A2994 RMK A01 T03280154  RH  035%=      5-min Rain = 0
KCA2 251735Z 17006KT 33/15 A2994 RMK A01 T03290152  RH  035%=      5-min Rain = 0
KCA2 251736Z 19005KT 33/15 A2994 RMK A01 T03290153  RH  035%=      5-min Rain = 0
KCA2 251737Z 19003KT 33/15 A2994 RMK A01 T03250153  RH  035%=      5-min Rain = 0
KCA2 251738Z 16004KT 33/15 A2994 RMK A01 T03250154  RH  036%=      5-min Rain = 0
KCA2 251739Z 14002KT 33/15 A2994 RMK A01 T03280153  RH  035%=      5-min Rain = 0
KCA2 251740Z 15001KT 33/15 A2994 RMK A01 T03300154  RH  035%=      5-min Rain = 0
KCA2 251741Z 10002KT 33/15 A2994 RMK A01 T03340153  RH  034%=      5-min Rain = 0
KCA2 251742Z 13004KT 34/15 A2994 RMK A01 T03380153  RH  033%=      5-min Rain = 0
KCA2 251743Z 12008KT 34/15 A2994 RMK A01 T03410151  RH  032%=      5-min Rain = 0
KCA2 251744Z 11005KT 34/15 A2994 RMK A01 T03370149  RH  032%=      5-min Rain = 0
KCA2 251745Z 11008KT 34/15 A2994 RMK A01 T03360149  RH  033%=      5-min Rain = 0
KCA2 251746Z 12007KT 34/15 A2994 RMK A01 T03360148  RH  032%=      5-min Rain = 0
KCA2 251747Z 16006KT 34/15 A2994 RMK A01 T03360151  RH  033%=      5-min Rain = 0
KCA2 251748Z 18007KT 34/15 A2994 RMK A01 T03390151  RH  032%=      5-min Rain = 0
KCA2 251749Z 18005KT 34/15 A2994 RMK A01 T03360151  RH  033%=      5-min Rain = 0
KCA2 251750Z 16001KT 33/15 A2994 RMK A01 T03340152  RH  033%=      5-min Rain = 0
KCA2 251751Z 23000KT 34/15 A2994 RMK A01 T03350152  RH  033%=      5-min Rain = 0
KCA2 251752Z 13002KT 34/15 A2994 RMK A01 T03370152  RH  033%=      5-min Rain = 0
KCA2 251753Z 13006KT 34/15 A2993 RMK A01 T03380152  RH  033%=      5-min Rain = 0
KCA2 251754Z 11006KT 34/15 A2993 RMK A01 T03360149  RH  032%=      5-min Rain = 0
KCA2 251755Z 09005KT 33/15 A2993 RMK A01 T03340149  RH  033%=      5-min Rain = 0
KCA2 251756Z 08003KT 33/15 A2993 RMK A01 T03310147  RH  033%=      5-min Rain = 0
KCA2 251757Z 08005KT 33/15 A2993 RMK A01 T03290148  RH  034%=      5-min Rain = 0
KCA2 251758Z 12007KT 33/15 A2993 RMK A01 T03310151  RH  034%=      5-min Rain = 0
KCA2 251759Z 15005KT 33/15 A2993 RMK A01 T03330151  RH  034%=      5-min Rain = 0
KCA2 251800Z 15005KT 33/15 A2993 RMK A01 T03340152  RH  034%=      5-min Rain = 0
KCA2 251801Z 14006KT 34/15 A2993 RMK A01 T03360152  RH  033%=      5-min Rain = 0
KCA2 251802Z 17004KT 34/15 A2993 RMK A01 T03370153  RH  033%=      5-min Rain = 0
KCA2 251803Z 18005KT 34/15 A2993 RMK A01 T03400154  RH  033%=      5-min Rain = 0
KCA2 251804Z 18007KT 34/16 A2993 RMK A01 T03410155  RH  033%=      5-min Rain = 0
KCA2 251805Z 19005KT 34/15 A2993 RMK A01 T03430154  RH  032%=      5-min Rain = 0
KCA2 251806Z 20006KT 34/15 A2993 RMK A01 T03420153  RH  032%=      5-min Rain = 0
KCA2 251807Z 11005KT 34/15 A2993 RMK A01 T03420154  RH  033%=      5-min Rain = 0
KCA2 251808Z 13009KT 34/15 A2993 RMK A01 T03430153  RH  032%=      5-min Rain = 0
KCA2 251809Z 15008KT 34/15 A2993 RMK A01 T03410153  RH  032%=      5-min Rain = 0
KCA2 251810Z 16008KT 34/15 A2993 RMK A01 T03400153  RH  033%=      5-min Rain = 0
KCA2 251811Z 14006KT 34/15 A2993 RMK A01 T03400153  RH  033%=      5-min Rain = 0
KCA2 251812Z 14008KT 34/15 A2993 RMK A01 T03400154  RH  033%=      5-min Rain = 0
KCA2 251813Z 14005KT 34/15 A2993 RMK A01 T03390153  RH  033%=      5-min Rain = 0
KCA2 251814Z 14005KT 34/15 A2993 RMK A01 T03380153  RH  033%=      5-min Rain = 0
KCA2 251815Z 14005KT 34/15 A2992 RMK A01 T03390154  RH  033%=      5-min Rain = 0
KCA2 251816Z 13007KT 34/15 A2992 RMK A01 T03410154  RH  033%=      5-min Rain = 0
KCA2 251817Z 10005KT 34/15 A2992 RMK A01 T03400153  RH  033%=      5-min Rain = 0
KCA2 251818Z 11003KT 34/15 A2992 RMK A01 T03370152  RH  033%=      5-min Rain = 0
KCA2 251819Z 08001KT 34/15 A2992 RMK A01 T03350152  RH  033%=      5-min Rain = 0
KCA2 251820Z 08002KT 34/15 A2992 RMK A01 T03350152  RH  033%=      5-min Rain = 0
KCA2 251821Z 10002KT 34/15 A2992 RMK A01 T03350152  RH  033%=      5-min Rain = 0
KCA2 251822Z 08002KT 34/15 A2992 RMK A01 T03370152  RH  033%=      5-min Rain = 0
KCA2 251823Z 09004KT 34/15 A2992 RMK A01 T03410152  RH  032%=      5-min Rain = 0
KCA2 251824Z 13004KT 35/15 A2992 RMK A01 T03470153  RH  031%=      5-min Rain = 0
KCA2 251825Z 12007G13KT 35/15 A2992 RMK A01 T03510153  RH  031%=      5-min Rain = 0
KCA2 251826Z 10009G14KT 35/15 A2992 RMK A01 T03530152  RH  030%=      5-min Rain = 0
KCA2 251827Z 08006KT 35/15 A2992 RMK A01 T03520150  RH  030%=      5-min Rain = 0
KCA2 251828Z 08006KT 35/15 A2992 RMK A01 T03450149  RH  031%=      5-min Rain = 0
KCA2 251829Z 10002KT 34/15 A2992 RMK A01 T03400149  RH  032%=      5-min Rain = 0
KCA2 251830Z 13004KT 34/15 A2992 RMK A01 T03410151  RH  032%=      5-min Rain = 0
KCA2 251831Z 16006KT 35/15 A2992 RMK A01 T03470152  RH  031%=      5-min Rain = 0
KCA2 251832Z 16008KT 35/15 A2992 RMK A01 T03490153  RH  031%=      5-min Rain = 0
KCA2 251833Z 16008KT 35/15 A2992 RMK A01 T03480152  RH  031%=      5-min Rain = 0
KCA2 251834Z 16006KT 35/15 A2992 RMK A01 T03450153  RH  032%=      5-min Rain = 0
KCA2 251835Z 17006KT 35/15 A2992 RMK A01 T03480153  RH  031%=      5-min Rain = 0
KCA2 251836Z 18005KT 35/16 A2992 RMK A01 T03500155  RH  031%=      5-min Rain = 0
KCA2 251837Z 17007KT 35/15 A2991 RMK A01 T03540154  RH  030%=      5-min Rain = 0
KCA2 251838Z 20005KT 35/15 A2991 RMK A01 T03510154  RH  031%=      5-min Rain = 0
KCA2 251839Z 21004KT 35/15 A2991 RMK A01 T03490153  RH  031%=      5-min Rain = 0
KCA2 251840Z 18003KT 35/15 A2991 RMK A01 T03470152  RH  031%=      5-min Rain = 0
KCA2 251841Z 11002KT 35/15 A2991 RMK A01 T03480152  RH  031%=      5-min Rain = 0
KCA2 251842Z 07004KT 35/15 A2991 RMK A01 T03480151  RH  031%=      5-min Rain = 0
KCA2 251843Z 10007KT 35/15 A2991 RMK A01 T03470151  RH  031%=      5-min Rain = 0
KCA2 251844Z 11008KT 35/15 A2991 RMK A01 T03480152  RH  031%=      5-min Rain = 0
KCA2 251845Z 09006KT 35/15 A2991 RMK A01 T03490151  RH  031%=      5-min Rain = 0
KCA2 251846Z 07003KT 35/15 A2991 RMK A01 T03480151  RH  031%=      5-min Rain = 0
KCA2 251847Z 07003KT 35/15 A2991 RMK A01 T03490152  RH  031%=      5-min Rain = 0
KCA2 251848Z 16004KT 35/15 A2991 RMK A01 T03520153  RH  030%=      5-min Rain = 0
KCA2 251849Z 14006KT 36/15 A2991 RMK A01 T03560153  RH  030%=      5-min Rain = 0
KCA2 251850Z 10008KT 36/15 A2991 RMK A01 T03590154  RH  029%=      5-min Rain = 0
KCA2 251851Z 10006KT 36/15 A2991 RMK A01 T03590152  RH  029%=      5-min Rain = 0
KCA2 251852Z 10008KT 36/15 A299 RMK A01 T03570151  RH  029%=      5-min Rain = 0
KCA2 251853Z 09008KT 36/15 A299 RMK A01 T03570150  RH  029%=      5-min Rain = 0
KCA2 251854Z 11007KT 35/15 A2991 RMK A01 T03540149  RH  029%=      5-min Rain = 0
KCA2 251855Z 13004KT 35/15 A299 RMK A01 T03510149  RH  030%=      5-min Rain = 0
KCA2 251856Z 16003KT 35/15 A299 RMK A01 T03500150  RH  030%=      5-min Rain = 0
KCA2 251857Z 16004KT 35/15 A299 RMK A01 T03520152  RH  030%=      5-min Rain = 0
KCA2 251858Z 16007KT 35/15 A299 RMK A01 T03520151  RH  030%=      5-min Rain = 0
KCA2 251859Z 17007KT 35/15 A299 RMK A01 T03530152  RH  030%=      5-min Rain = 0
KCA2 251900Z 17007KT 35/15 A299 RMK A01 T03540152  RH  030%=      5-min Rain = 0
KCA2 251901Z 17005KT 35/15 A299 RMK A01 T03530151  RH  030%=      5-min Rain = 0
KCA2 251902Z 18005KT 35/15 A299 RMK A01 T03530152  RH  030%=      5-min Rain = 0
KCA2 251903Z 19006KT 36/15 A299 RMK A01 T03550150  RH  029%=      5-min Rain = 0
KCA2 251904Z 18007KT 35/15 A299 RMK A01 T03530151  RH  030%=      5-min Rain = 0
KCA2 251905Z 19005KT 35/15 A299 RMK A01 T03540150  RH  030%=      5-min Rain = 0
KCA2 251906Z 21004KT 35/15 A299 RMK A01 T03530149  RH  030%=      5-min Rain = 0
KCA2 251907Z 22002KT 35/15 A299 RMK A01 T03520150  RH  030%=      5-min Rain = 0
KCA2 251908Z 22002KT 35/15 A299 RMK A01 T03540150  RH  029%=      5-min Rain = 0
KCA2 251909Z 21002KT 36/15 A299 RMK A01 T03550149  RH  029%=      5-min Rain = 0
KCA2 251910Z 23001KT 36/15 A299 RMK A01 T03550151  RH  030%=      5-min Rain = 0
KCA2 251911Z 18005KT 36/15 A299 RMK A01 T03580151  RH  029%=      5-min Rain = 0
KCA2 251912Z 18005KT 36/15 A299 RMK A01 T03600153  RH  029%=      5-min Rain = 0
KCA2 251913Z 14004KT 36/15 A2989 RMK A01 T03630153  RH  029%=      5-min Rain = 0
KCA2 251914Z 16005KT 37/15 A2989 RMK A01 T03650154  RH  029%=      5-min Rain = 0
KCA2 251915Z 16006KT 37/15 A2989 RMK A01 T03670154  RH  028%=      5-min Rain = 0
KCA2 251916Z 14004KT 37/15 A2989 RMK A01 T03660153  RH  028%=      5-min Rain = 0
KCA2 251917Z 12005KT 37/15 A2989 RMK A01 T03670152  RH  028%=      5-min Rain = 0
KCA2 251918Z 11006KT 37/15 A2989 RMK A01 T03670151  RH  028%=      5-min Rain = 0
KCA2 251919Z 09005KT 36/15 A2989 RMK A01 T03630149  RH  028%=      5-min Rain = 0
KCA2 251920Z 06004KT 36/15 A2989 RMK A01 T03580148  RH  029%=      5-min Rain = 0
KCA2 251921Z 04004KT 36/15 A2989 RMK A01 T03550147  RH  029%=      5-min Rain = 0
KCA2 251922Z 06002KT 35/15 A2989 RMK A01 T03540148  RH  029%=      5-min Rain = 0
KCA2 251923Z 10004KT 36/15 A2989 RMK A01 T03560148  RH  029%=      5-min Rain = 0
KCA2 251924Z 11006KT 36/15 A2989 RMK A01 T03590148  RH  028%=      5-min Rain = 0
KCA2 251925Z 10004KT 36/15 A2989 RMK A01 T03590149  RH  029%=      5-min Rain = 0
KCA2 251926Z 13004KT 36/15 A2989 RMK A01 T03620149  RH  028%=      5-min Rain = 0
KCA2 251927Z 12004KT 36/15 A2989 RMK A01 T03630148  RH  028%=      5-min Rain = 0
KCA2 251928Z 14003KT 36/15 A2989 RMK A01 T03630146  RH  027%=      5-min Rain = 0
KCA2 251929Z 17001KT 36/15 A2988 RMK A01 T03610146  RH  028%=      5-min Rain = 0
KCA2 251930Z 16002KT 36/15 A2988 RMK A01 T03600145  RH  028%=      5-min Rain = 0
KCA2 251931Z 06004KT 36/15 A2988 RMK A01 T03600146  RH  028%=      5-min Rain = 0
KCA2 251932Z 06006KT 37/15 A2988 RMK A01 T03650145  RH  027%=      5-min Rain = 0
KCA2 251933Z 03005KT 37/14 A2988 RMK A01 T03670141  RH  026%=      5-min Rain = 0
KCA2 251934Z 04004KT 37/14 A2988 RMK A01 T03670141  RH  026%=      5-min Rain = 0
KCA2 251935Z 03004KT 37/14 A2988 RMK A01 T03670140  RH  026%=      5-min Rain = 0
KCA2 251936Z 03004KT 37/14 A2988 RMK A01 T03650141  RH  026%=      5-min Rain = 0
KCA2 251937Z 03004KT 36/14 A2988 RMK A01 T03620140  RH  027%=      5-min Rain = 0
KCA2 251938Z 03004KT 36/14 A2988 RMK A01 T03620140  RH  027%=      5-min Rain = 0
KCA2 251939Z 02003KT 36/14 A2988 RMK A01 T03630140  RH  026%=      5-min Rain = 0
KCA2 251940Z 02002KT 37/14 A2988 RMK A01 T03660141  RH  026%=      5-min Rain = 0
KCA2 251941Z 16005KT 37/14 A2988 RMK A01 T03700141  RH  026%=      5-min Rain = 0
KCA2 251942Z 17005KT 37/14 A2988 RMK A01 T03700142  RH  026%=      5-min Rain = 0
KCA2 251943Z 14006KT 37/14 A2988 RMK A01 T03710142  RH  026%=      5-min Rain = 0
KCA2 251944Z 13005KT 37/14 A2988 RMK A01 T03690140  RH  026%=      5-min Rain = 0
KCA2 251945Z 15004KT 37/14 A2988 RMK A01 T03650137  RH  026%=      5-min Rain = 0
KCA2 251946Z 18003KT 36/14 A2988 RMK A01 T03630135  RH  026%=      5-min Rain = 0
KCA2 251947Z 18003KT 36/14 A2987 RMK A01 T03630136  RH  026%=      5-min Rain = 0
KCA2 251948Z 27001KT 36/14 A2987 RMK A01 T03620135  RH  026%=      5-min Rain = 0
KCA2 251949Z 30002KT 36/13 A2987 RMK A01 T03610132  RH  025%=      5-min Rain = 0
KCA2 251950Z 00003KT 36/13 A2987 RMK A01 T03610134  RH  026%=      5-min Rain = 0
KCA2 251951Z 01004KT 36/14 A2987 RMK A01 T03640137  RH  026%=      5-min Rain = 0
KCA2 251952Z 01003KT 37/13 A2987 RMK A01 T03660130  RH  024%=      5-min Rain = 0
KCA2 251953Z 09001KT 37/13 A2987 RMK A01 T03680131  RH  024%=      5-min Rain = 0
KCA2 251954Z 18003KT 37/14 A2987 RMK A01 T03700142  RH  026%=      5-min Rain = 0
KCA2 251955Z 19004KT 37/14 A2987 RMK A01 T03720144  RH  026%=      5-min Rain = 0
KCA2 251956Z 18004KT 37/14 A2987 RMK A01 T03720144  RH  026%=      5-min Rain = 0
KCA2 251957Z 15002KT 37/15 A2987 RMK A01 T03710145  RH  026%=      5-min Rain = 0
KCA2 251958Z 19004KT 37/14 A2987 RMK A01 T03710144  RH  026%=      5-min Rain = 0
KCA2 251959Z 24003KT 37/14 A2987 RMK A01 T03710144  RH  026%=      5-min Rain = 0
KCA2 252000Z 25002KT 37/14 A2986 RMK A01 T03720144  RH  026%=      5-min Rain = 0
KCA2 252001Z 28002KT 37/15 A2986 RMK A01 T03740146  RH  026%=      5-min Rain = 0
KCA2 252002Z 11003KT 38/15 A2986 RMK A01 T03800146  RH  025%=      5-min Rain = 0
KCA2 252003Z 10006KT 38/15 A2986 RMK A01 T03820145  RH  025%=      5-min Rain = 0
KCA2 252004Z 10006KT 38/14 A2986 RMK A01 T03820144  RH  025%=      5-min Rain = 0
KCA2 252005Z 11004KT 38/14 A2986 RMK A01 T03790143  RH  025%=      5-min Rain = 0
KCA2 252006Z 09004KT 38/14 A2986 RMK A01 T03750141  RH  025%=      5-min Rain = 0
KCA2 252007Z 11005KT 37/14 A2986 RMK A01 T03730141  RH  025%=      5-min Rain = 0
KCA2 252008Z 10004KT 38/14 A2986 RMK A01 T03750142  RH  025%=      5-min Rain = 0
KCA2 252009Z 13002KT 38/14 A2986 RMK A01 T03780142  RH  025%=      5-min Rain = 0
KCA2 252010Z 20003KT 38/14 A2986 RMK A01 T03790142  RH  025%=      5-min Rain = 0
KCA2 252011Z 14006KT 38/14 A2986 RMK A01 T03800142  RH  024%=      5-min Rain = 0
KCA2 252012Z 12003KT 38/14 A2986 RMK A01 T03820140  RH  024%=      5-min Rain = 0
KCA2 252013Z 17002KT 38/14 A2986 RMK A01 T03810141  RH  024%=      5-min Rain = 0
KCA2 252014Z 18004KT 38/14 A2985 RMK A01 T03820140  RH  024%=      5-min Rain = 0
KCA2 252015Z 18004KT 38/14 A2985 RMK A01 T03830139  RH  024%=      5-min Rain = 0
KCA2 252016Z 19002KT 38/14 A2985 RMK A01 T03830138  RH  023%=      5-min Rain = 0
KCA2 252017Z 16001KT 38/14 A2985 RMK A01 T03830138  RH  023%=      5-min Rain = 0
KCA2 252018Z 15000KT 38/14 A2985 RMK A01 T03830137  RH  023%=      5-min Rain = 0
KCA2 252019Z 09001KT 38/14 A2985 RMK A01 T03840138  RH  023%=      5-min Rain = 0
KCA2 252020Z 13003KT 39/14 A2985 RMK A01 T03850137  RH  023%=      5-min Rain = 0
KCA2 252021Z 07003KT 39/14 A2985 RMK A01 T03850136  RH  023%=      5-min Rain = 0
KCA2 252022Z 05003KT 39/14 A2985 RMK A01 T03850138  RH  023%=      5-min Rain = 0
KCA2 252023Z 07002KT 39/14 A2985 RMK A01 T03850137  RH  023%=      5-min Rain = 0
KCA2 252024Z 05003KT 39/14 A2985 RMK A01 T03860137  RH  023%=      5-min Rain = 0
KCA2 252025Z 05004KT 39/13 A2985 RMK A01 T03850134  RH  023%=      5-min Rain = 0
KCA2 252026Z 04005KT 38/13 A2985 RMK A01 T03820133  RH  023%=      5-min Rain = 0
KCA2 252027Z 04005KT 38/13 A2985 RMK A01 T03810133  RH  023%=      5-min Rain = 0
KCA2 252028Z 01004KT 38/13 A2985 RMK A01 T03810133  RH  023%=      5-min Rain = 0
KCA2 252029Z 35002KT 38/13 A2985 RMK A01 T03810133  RH  023%=      5-min Rain = 0
KCA2 252030Z 02003KT 38/13 A2984 RMK A01 T03820134  RH  023%=      5-min Rain = 0
KCA2 252031Z 05002KT 39/14 A2984 RMK A01 T03850135  RH  023%=      5-min Rain = 0
KCA2 252032Z 10004KT 39/13 A2984 RMK A01 T03860133  RH  022%=      5-min Rain = 0
KCA2 252033Z 08007KT 39/13 A2984 RMK A01 T03880130  RH  022%=      5-min Rain = 0
KCA2 252034Z 08005KT 38/13 A2984 RMK A01 T03810129  RH  022%=      5-min Rain = 0
KCA2 252035Z 08005KT 38/13 A2984 RMK A01 T03780128  RH  023%=      5-min Rain = 0
KCA2 252036Z 08004KT 38/13 A2984 RMK A01 T03800128  RH  022%=      5-min Rain = 0
KCA2 252037Z 07004KT 39/13 A2984 RMK A01 T03850129  RH  022%=      5-min Rain = 0
KCA2 252038Z 06003KT 39/13 A2984 RMK A01 T03870130  RH  022%=      5-min Rain = 0
KCA2 252039Z 04001KT 39/13 A2984 RMK A01 T03850128  RH  022%=      5-min Rain = 0
KCA2 252040Z 04002KT 39/13 A2984 RMK A01 T03850128  RH  022%=      5-min Rain = 0
KCA2 252041Z 09001KT 39/13 A2984 RMK A01 T03850127  RH  022%=      5-min Rain = 0
KCA2 252042Z 12002KT 39/13 A2984 RMK A01 T03860128  RH  022%=      5-min Rain = 0
KCA2 252043Z 08003KT 39/13 A2984 RMK A01 T03880128  RH  021%=      5-min Rain = 0
KCA2 252044Z 11002KT 39/13 A2984 RMK A01 T03910128  RH  021%=      5-min Rain = 0
KCA2 252045Z 13004KT 39/13 A2984 RMK A01 T03900126  RH  021%=      5-min Rain = 0
KCA2 252046Z 14004KT 39/13 A2984 RMK A01 T03860125  RH  021%=      5-min Rain = 0
KCA2 252047Z 17004KT 39/12 A2984 RMK A01 T03860124  RH  021%=      5-min Rain = 0
KCA2 252048Z 16001KT 39/12 A2984 RMK A01 T03870124  RH  021%=      5-min Rain = 0
KCA2 252049Z 19002KT 39/12 A2984 RMK A01 T03890123  RH  021%=      5-min Rain = 0
KCA2 252050Z 11002KT 39/12 A2984 RMK A01 T03890120  RH  020%=      5-min Rain = 0
KCA2 252051Z 11001KT 39/11 A2984 RMK A01 T03900113  RH  019%=      5-min Rain = 0
KCA2 252052Z 27001KT 39/11 A2984 RMK A01 T03870111  RH  019%=      5-min Rain = 0
KCA2 252053Z 30001KT 39/11 A2984 RMK A01 T03860109  RH  019%=      5-min Rain = 0
KCA2 252054Z 29002KT 38/10 A2983 RMK A01 T03840103  RH  019%=      5-min Rain = 0
KCA2 252055Z 23002KT 39/10 A2983 RMK A01 T03860099  RH  018%=      5-min Rain = 0
KCA2 252056Z 24003KT 39/10 A2983 RMK A01 T03870102  RH  018%=      5-min Rain = 0
KCA2 252057Z 24003KT 39/10 A2983 RMK A01 T03890098  RH  017%=      5-min Rain = 0
KCA2 252058Z 22001KT 39/10 A2983 RMK A01 T03940101  RH  017%=      5-min Rain = 0
KCA2 252059Z 07003KT 40/10 A2983 RMK A01 T03990101  RH  017%=      5-min Rain = 0
KCA2 252100Z 06002KT 40/09 A2983 RMK A01 T03950094  RH  016%=      5-min Rain = 0
KCA2 252101Z 07003KT 39/09 A2983 RMK A01 T03910091  RH  016%=      5-min Rain = 0
KCA2 252102Z 08003KT 39/08 A2983 RMK A01 T03880083  RH  016%=      5-min Rain = 0
KCA2 252103Z 06002KT 39/08 A2983 RMK A01 T03860081  RH  016%=      5-min Rain = 0
KCA2 252104Z 03002KT 39/08 A2983 RMK A01 T03850081  RH  016%=      5-min Rain = 0
KCA2 252105Z 03001KT 39/08 A2983 RMK A01 T03850076  RH  015%=      5-min Rain = 0
KCA2 252106Z 08000KT 39/07 A2983 RMK A01 T03860074  RH  015%=      5-min Rain = 0
KCA2 252107Z 01001KT 39/08 A2983 RMK A01 T03880076  RH  015%=      5-min Rain = 0
KCA2 252108Z 00001KT 39/08 A2983 RMK A01 T03900078  RH  015%=      5-min Rain = 0
KCA2 252109Z 08002KT 39/08 A2983 RMK A01 T03920078  RH  015%=      5-min Rain = 0
KCA2 252110Z 04001KT 40/08 A2983 RMK A01 T03950079  RH  015%=      5-min Rain = 0
KCA2 252111Z 11001KT 40/08 A2983 RMK A01 T03980081  RH  015%=      5-min Rain = 0
KCA2 252112Z 13003KT 40/09 A2983 RMK A01 T04000090  RH  016%=      5-min Rain = 0
KCA2 252113Z 18003KT 40/10 A2982 RMK A01 T03990098  RH  016%=      5-min Rain = 0
KCA2 252114Z 18007KT 40/09 A2982 RMK A01 T04000088  RH  015%=      5-min Rain = 0
KCA2 252115Z 19006KT 40/08 A2982 RMK A01 T03970083  RH  015%=      5-min Rain = 0
KCA2 252116Z 18006KT 40/08 A2982 RMK A01 T03950084  RH  015%=      5-min Rain = 0
KCA2 252117Z 21007KT 40/07 A2982 RMK A01 T04010073  RH  014%=      5-min Rain = 0
KCA2 252118Z 19005KT 40/07 A2982 RMK A01 T04020067  RH  013%=      5-min Rain = 0
KCA2 252119Z 18006KT 40/07 A2982 RMK A01 T04020068  RH  013%=      5-min Rain = 0
KCA2 252120Z 20007KT 40/06 A2982 RMK A01 T04010056  RH  012%=      5-min Rain = 0
KCA2 252121Z 20005KT 40/05 A2982 RMK A01 T03990049  RH  012%=      5-min Rain = 0
KCA2 252122Z 20006KT 40/05 A2982 RMK A01 T04020050  RH  012%=      5-min Rain = 0
KCA2 252123Z 21006KT 40/06 A2982 RMK A01 T04030061  RH  013%=      5-min Rain = 0
KCA2 252124Z 24006KT 40/08 A2982 RMK A01 T04040081  RH  014%=      5-min Rain = 0
KCA2 252125Z 26005KT 40/09 A2982 RMK A01 T04030087  RH  015%=      5-min Rain = 0
KCA2 252126Z 27002KT 40/08 A2982 RMK A01 T04020084  RH  015%=      5-min Rain = 0
KCA2 252127Z 16003KT 40/09 A2982 RMK A01 T04010085  RH  015%=      5-min Rain = 0
KCA2 252128Z 15002KT 40/08 A2982 RMK A01 T04020076  RH  014%=      5-min Rain = 0
KCA2 252129Z 16006KT 40/08 A2982 RMK A01 T04000081  RH  015%=      5-min Rain = 0
KCA2 252130Z 16005KT 40/08 A2982 RMK A01 T03980084  RH  015%=      5-min Rain = 0
KCA2 252131Z 17004KT 40/09 A2982 RMK A01 T03970088  RH  016%=      5-min Rain = 0
KCA2 252132Z 20005KT 40/09 A2982 RMK A01 T03970093  RH  016%=      5-min Rain = 0
KCA2 252133Z 20005KT 40/09 A2982 RMK A01 T03970094  RH  016%=      5-min Rain = 0
KCA2 252134Z 21005KT 40/10 A2982 RMK A01 T03990095  RH  016%=      5-min Rain = 0
KCA2 252135Z 20003KT 40/09 A2982 RMK A01 T04000093  RH  016%=      5-min Rain = 0
KCA2 252136Z 21002KT 40/09 A2981 RMK A01 T03960094  RH  016%=      5-min Rain = 0
KCA2 252137Z 21001KT 39/09 A2981 RMK A01 T03940093  RH  016%=      5-min Rain = 0
KCA2 252138Z 14001KT 39/09 A2981 RMK A01 T03920089  RH  016%=      5-min Rain = 0
KCA2 252139Z 16001KT 39/08 A2981 RMK A01 T03930084  RH  015%=      5-min Rain = 0
KCA2 252140Z 12003KT 39/08 A2981 RMK A01 T03930080  RH  015%=      5-min Rain = 0
KCA2 252141Z 18005KT 40/08 A2981 RMK A01 T03950075  RH  014%=      5-min Rain = 0
KCA2 252142Z 17006KT 40/08 A2981 RMK A01 T04000076  RH  014%=      5-min Rain = 0
KCA2 252143Z 15005KT 40/08 A2981 RMK A01 T04040080  RH  014%=      5-min Rain = 0
KCA2 252144Z 11005KT 40/09 A2981 RMK A01 T04030090  RH  015%=      5-min Rain = 0
KCA2 252145Z 14004KT 40/09 A2981 RMK A01 T04010091  RH  016%=      5-min Rain = 0
KCA2 252146Z 08001KT 40/09 A2981 RMK A01 T04000089  RH  015%=      5-min Rain = 0
KCA2 252147Z 11003KT 40/09 A2981 RMK A01 T03980088  RH  015%=      5-min Rain = 0
KCA2 252148Z 17005KT 40/09 A2981 RMK A01 T03960089  RH  016%=      5-min Rain = 0
KCA2 252149Z 14008KT 40/09 A2981 RMK A01 T03970088  RH  016%=      5-min Rain = 0
KCA2 252150Z 16006KT 40/09 A2981 RMK A01 T03980085  RH  015%=      5-min Rain = 0
KCA2 252151Z 17009KT 40/09 A2981 RMK A01 T03980085  RH  015%=      5-min Rain = 0
KCA2 252152Z 16010G15KT 40/08 A2981 RMK A01 T04000083  RH  015%=      5-min Rain = 0
KCA2 252153Z 18010KT 40/09 A2981 RMK A01 T03980085  RH  015%=      5-min Rain = 0
KCA2 252154Z 19008KT 40/09 A2981 RMK A01 T03970087  RH  016%=      5-min Rain = 0
KCA2 252155Z 21007KT 40/09 A2981 RMK A01 T03970087  RH  015%=      5-min Rain = 0
KCA2 252156Z 23005KT 40/08 A2981 RMK A01 T04000079  RH  014%=      5-min Rain = 0
KCA2 252157Z 23005KT 40/07 A298 RMK A01 T03990073  RH  014%=      5-min Rain = 0
KCA2 252158Z 19007KT 40/08 A298 RMK A01 T03990075  RH  014%=      5-min Rain = 0
KCA2 252159Z 15007KT 40/08 A298 RMK A01 T04000081  RH  015%=      5-min Rain = 0
KCA2 252200Z 14009KT 40/08 A298 RMK A01 T04030083  RH  015%=      5-min Rain = 0
KCA2 252201Z 15014G19KT 40/09 A298 RMK A01 T04020089  RH  015%=      5-min Rain = 0
KCA2 252202Z 14012G18KT 40/09 A298 RMK A01 T04010088  RH  015%=      5-min Rain = 0
KCA2 252203Z 14010KT 40/09 A298 RMK A01 T04000088  RH  015%=      5-min Rain = 0
KCA2 252204Z 15008KT 40/09 A298 RMK A01 T03980088  RH  016%=      5-min Rain = 0
KCA2 252205Z 15007KT 40/09 A298 RMK A01 T03960085  RH  015%=      5-min Rain = 0
KCA2 252206Z 15007KT 40/08 A298 RMK A01 T03950084  RH  015%=      5-min Rain = 0
KCA2 252207Z 15005KT 40/09 A298 RMK A01 T03960092  RH  016%=      5-min Rain = 0
KCA2 252208Z 15002KT 40/10 A298 RMK A01 T03960095  RH  016%=      5-min Rain = 0
KCA2 252209Z 14005KT 40/09 A298 RMK A01 T03950094  RH  016%=      5-min Rain = 0
KCA2 252210Z 12008G13KT 40/09 A298 RMK A01 T03960094  RH  016%=      5-min Rain = 0
KCA2 252211Z 10007KT 40/09 A298 RMK A01 T03970094  RH  016%=      5-min Rain = 0
KCA2 252212Z 10006KT 40/09 A298 RMK A01 T03960093  RH  016%=      5-min Rain = 0
KCA2 252213Z 12004KT 39/09 A298 RMK A01 T03940093  RH  016%=      5-min Rain = 0
KCA2 252214Z 17003KT 40/09 A298 RMK A01 T03960094  RH  016%=      5-min Rain = 0
KCA2 252215Z 17006KT 40/09 A298 RMK A01 T04000094  RH  016%=      5-min Rain = 0
KCA2 252216Z 17007KT 40/09 A298 RMK A01 T04000092  RH  016%=      5-min Rain = 0
KCA2 252217Z 16007KT 40/09 A298 RMK A01 T04000085  RH  015%=      5-min Rain = 0
KCA2 252218Z 17009KT 40/08 A298 RMK A01 T04030077  RH  014%=      5-min Rain = 0
KCA2 252219Z 14012KT 40/08 A298 RMK A01 T04030075  RH  014%=      5-min Rain = 0
KCA2 252220Z 14008KT 40/08 A298 RMK A01 T04010076  RH  014%=      5-min Rain = 0
KCA2 252221Z 14009KT 40/08 A298 RMK A01 T04000076  RH  014%=      5-min Rain = 0
KCA2 252222Z 16009KT 40/08 A298 RMK A01 T03990076  RH  014%=      5-min Rain = 0
KCA2 252223Z 14010KT 40/08 A298 RMK A01 T04000077  RH  014%=      5-min Rain = 0
KCA2 252224Z 16008KT 40/08 A298 RMK A01 T04010079  RH  014%=      5-min Rain = 0
KCA2 252225Z 15009KT 40/08 A298 RMK A01 T04020078  RH  014%=      5-min Rain = 0
KCA2 252226Z 15007KT 40/08 A298 RMK A01 T04000076  RH  014%=      5-min Rain = 0
KCA2 252227Z 16005KT 40/08 A298 RMK A01 T03990077  RH  014%=      5-min Rain = 0
KCA2 252228Z 19006KT 40/08 A298 RMK A01 T03990075  RH  014%=      5-min Rain = 0
KCA2 252229Z 19003KT 40/08 A298 RMK A01 T03980076  RH  014%=      5-min Rain = 0
KCA2 252230Z 18005KT 40/07 A2979 RMK A01 T03990074  RH  014%=      5-min Rain = 0
KCA2 252231Z 19004KT 40/07 A2979 RMK A01 T03980074  RH  014%=      5-min Rain = 0
KCA2 252232Z 16005KT 40/07 A2979 RMK A01 T03980073  RH  014%=      5-min Rain = 0
KCA2 252233Z 15004KT 40/07 A2979 RMK A01 T03980072  RH  014%=      5-min Rain = 0
KCA2 252234Z 15007KT 40/08 A2979 RMK A01 T03980076  RH  014%=      5-min Rain = 0
KCA2 252235Z 13011KT 40/07 A2979 RMK A01 T04020074  RH  014%=      5-min Rain = 0
KCA2 252236Z 15009KT 40/07 A298 RMK A01 T04020070  RH  013%=      5-min Rain = 0
KCA2 252237Z 16006KT 40/07 A2979 RMK A01 T04000069  RH  014%=      5-min Rain = 0
KCA2 252238Z 18007KT 40/07 A2979 RMK A01 T03990070  RH  014%=      5-min Rain = 0
KCA2 252239Z 16005KT 40/07 A2979 RMK A01 T04000070  RH  014%=      5-min Rain = 0
KCA2 252240Z 15005KT 40/07 A2979 RMK A01 T04000070  RH  014%=      5-min Rain = 0
KCA2 252241Z 16006KT 40/07 A2979 RMK A01 T04000071  RH  014%=      5-min Rain = 0
KCA2 252242Z 18008KT 40/07 A2979 RMK A01 T04020073  RH  014%=      5-min Rain = 0
KCA2 252243Z 18012KT 40/07 A2979 RMK A01 T04040072  RH  013%=      5-min Rain = 0
KCA2 252244Z 18011KT 41/07 A2979 RMK A01 T04050069  RH  013%=      5-min Rain = 0
KCA2 252245Z 17009KT 40/07 A2979 RMK A01 T04020068  RH  013%=      5-min Rain = 0
KCA2 252246Z 15009KT 40/07 A2979 RMK A01 T04010069  RH  013%=      5-min Rain = 0
KCA2 252247Z 12006KT 40/07 A298 RMK A01 T04010069  RH  013%=      5-min Rain = 0
KCA2 252248Z 14004G9KT 40/07 A298 RMK A01 T04010070  RH  013%=      5-min Rain = 0
KCA2 252249Z 13006G13KT 40/07 A298 RMK A01 T04040069  RH  013%=      5-min Rain = 0
KCA2 252250Z 08013KT 40/06 A298 RMK A01 T04040062  RH  013%=      5-min Rain = 0
KCA2 252251Z 09013KT 40/06 A298 RMK A01 T03990062  RH  013%=      5-min Rain = 0
KCA2 252252Z 09011KT 40/05 A298 RMK A01 T03950053  RH  012%=      5-min Rain = 0
KCA2 252253Z 08013KT 40/07 A298 RMK A01 T03960071  RH  014%=      5-min Rain = 0
KCA2 252254Z 06010KT 40/07 A298 RMK A01 T03960074  RH  014%=      5-min Rain = 0
KCA2 252255Z 06011KT 40/07 A298 RMK A01 T03990071  RH  014%=      5-min Rain = 0
KCA2 252256Z 06014KT 40/07 A298 RMK A01 T04020068  RH  013%=      5-min Rain = 0
KCA2 252257Z 05013KT 40/07 A298 RMK A01 T04020068  RH  013%=      5-min Rain = 0
KCA2 252258Z 03011KT 40/07 A298 RMK A01 T04020069  RH  013%=      5-min Rain = 0
KCA2 252259Z 04011KT 40/07 A298 RMK A01 T04010068  RH  013%=      5-min Rain = 0
KCA2 252300Z 04008G14KT 40/07 A298 RMK A01 T03970066  RH  013%=      5-min Rain = 0
KCA2 252301Z 05011KT 39/06 A298 RMK A01 T03940064  RH  013%=      5-min Rain = 0
KCA2 252302Z 05007KT 39/06 A298 RMK A01 T03940063  RH  013%=      5-min Rain = 0
KCA2 252303Z 04007KT 40/06 A298 RMK A01 T03950063  RH  013%=      5-min Rain = 0
KCA2 252304Z 04006KT 40/06 A298 RMK A01 T03960060  RH  013%=      5-min Rain = 0
KCA2 252305Z 06010KT 40/06 A298 RMK A01 T03960061  RH  013%=      5-min Rain = 0
KCA2 252306Z 06013KT 40/05 A298 RMK A01 T03970053  RH  012%=      5-min Rain = 0
KCA2 252307Z 06012KT 40/05 A298 RMK A01 T03970052  RH  012%=      5-min Rain = 0
KCA2 252308Z 06015KT 40/05 A298 RMK A01 T03970051  RH  012%=      5-min Rain = 0
KCA2 252309Z 06012KT 40/05 A298 RMK A01 T03970052  RH  012%=      5-min Rain = 0
KCA2 252310Z 07015KT 40/06 A298 RMK A01 T03960056  RH  013%=      5-min Rain = 0
KCA2 252311Z 06011KT 39/06 A298 RMK A01 T03940058  RH  013%=      5-min Rain = 0
KCA2 252312Z 05010KT 39/07 A298 RMK A01 T03940065  RH  013%=      5-min Rain = 0
KCA2 252313Z 04008KT 40/06 A298 RMK A01 T03950063  RH  013%=      5-min Rain = 0
KCA2 252314Z 05009KT 40/06 A298 RMK A01 T03960064  RH  013%=      5-min Rain = 0
KCA2 252315Z 05009KT 40/06 A298 RMK A01 T03960063  RH  013%=      5-min Rain = 0
KCA2 252316Z 07007KT 40/06 A298 RMK A01 T03950058  RH  013%=      5-min Rain = 0
KCA2 252317Z 08009KT 39/06 A298 RMK A01 T03940061  RH  013%=      5-min Rain = 0
KCA2 252318Z 08009KT 39/06 A298 RMK A01 T03940058  RH  013%=      5-min Rain = 0
KCA2 252319Z 08008KT 39/06 A298 RMK A01 T03940055  RH  013%=      5-min Rain = 0
KCA2 252320Z 08005KT 40/06 A298 RMK A01 T03970057  RH  013%=      5-min Rain = 0
KCA2 252321Z 05010G15KT 40/06 A298 RMK A01 T03990057  RH  012%=      5-min Rain = 0
KCA2 252322Z 04013KT 40/06 A2979 RMK A01 T04000059  RH  013%=      5-min Rain = 0
KCA2 252323Z 04015KT 40/05 A2979 RMK A01 T03990052  RH  012%=      5-min Rain = 0
KCA2 252324Z 04012KT 40/05 A2979 RMK A01 T03970049  RH  012%=      5-min Rain = 0
KCA2 252325Z 04016KT 39/06 A2979 RMK A01 T03940058  RH  013%=      5-min Rain = 0
KCA2 252326Z 04017KT 39/05 A2979 RMK A01 T03920054  RH  013%=      5-min Rain = 0
KCA2 252327Z 03013KT 39/05 A2979 RMK A01 T03920051  RH  012%=      5-min Rain = 0
KCA2 252328Z 04014G19KT 40/05 A2979 RMK A01 T03960050  RH  012%=      5-min Rain = 0
KCA2 252329Z 05014KT 40/05 A2979 RMK A01 T03970048  RH  012%=      5-min Rain = 0
KCA2 252330Z 05010G15KT 39/05 A2979 RMK A01 T03940052  RH  012%=      5-min Rain = 0
KCA2 252331Z 04011KT 39/05 A2979 RMK A01 T03940054  RH  013%=      5-min Rain = 0
KCA2 252332Z 04011KT 39/06 A2979 RMK A01 T03930057  RH  013%=      5-min Rain = 0
KCA2 252333Z 05007KT 39/06 A2979 RMK A01 T03920055  RH  013%=      5-min Rain = 0
KCA2 252334Z 05006KT 39/06 A2979 RMK A01 T03920056  RH  013%=      5-min Rain = 0
KCA2 252335Z 04005KT 39/05 A2979 RMK A01 T03940048  RH  012%=      5-min Rain = 0
KCA2 252336Z 04007KT 40/04 A2979 RMK A01 T03960040  RH  011%=      5-min Rain = 0
KCA2 252337Z 02005KT 40/04 A2979 RMK A01 T03970044  RH  012%=      5-min Rain = 0
KCA2 252338Z 03008KT 40/05 A2979 RMK A01 T03970054  RH  012%=      5-min Rain = 0
KCA2 252339Z 03010KT 40/06 A2979 RMK A01 T03990057  RH  012%=      5-min Rain = 0
KCA2 252340Z 05009KT 40/05 A2979 RMK A01 T03970054  RH  012%=      5-min Rain = 0
KCA2 252341Z 07009KT 39/05 A2979 RMK A01 T03940053  RH  012%=      5-min Rain = 0
KCA2 252342Z 07009KT 39/05 A2979 RMK A01 T03930053  RH  013%=      5-min Rain = 0
KCA2 252343Z 08009KT 39/06 A2979 RMK A01 T03930056  RH  013%=      5-min Rain = 0
KCA2 252344Z 09010KT 39/06 A2979 RMK A01 T03930056  RH  013%=      5-min Rain = 0
KCA2 252345Z 10006KT 39/06 A2979 RMK A01 T03910055  RH  013%=      5-min Rain = 0
KCA2 252346Z 09006KT 39/06 A2979 RMK A01 T03900057  RH  013%=      5-min Rain = 0
KCA2 252347Z 09007KT 39/06 A2979 RMK A01 T03900061  RH  013%=      5-min Rain = 0
KCA2 252348Z 10010KT 39/06 A2979 RMK A01 T03910064  RH  014%=      5-min Rain = 0
KCA2 252349Z 10009KT 39/07 A2979 RMK A01 T03920067  RH  014%=      5-min Rain = 0
KCA2 252350Z 10010KT 39/06 A2979 RMK A01 T03920063  RH  014%=      5-min Rain = 0
KCA2 252351Z 10011KT 39/06 A2979 RMK A01 T03910059  RH  013%=      5-min Rain = 0
KCA2 252352Z 10011KT 39/06 A2979 RMK A01 T03900059  RH  013%=      5-min Rain = 0
KCA2 252353Z 10011KT 39/06 A2979 RMK A01 T03900060  RH  013%=      5-min Rain = 0
KCA2 252354Z 10008KT 39/06 A2979 RMK A01 T03890061  RH  014%=      5-min Rain = 0
KCA2 252355Z 10009KT 39/06 A2979 RMK A01 T03890062  RH  014%=      5-min Rain = 0
KCA2 252356Z 09009KT 39/06 A2979 RMK A01 T03890064  RH  014%=      5-min Rain = 0
KCA2 252357Z 07010KT 39/07 A2979 RMK A01 T03890074  RH  015%=      5-min Rain = 0
KCA2 252358Z 07010KT 39/09 A2979 RMK A01 T03900085  RH  016%=      5-min Rain = 0
KCA2 252359Z 08006KT 39/09 A2979 RMK A01 T03900087  RH  016%=      5-min Rain = 0
KCA2 260000Z 10008KT 39/09 A2979 RMK A01 T03910088  RH  016%=      5-min Rain = 0
KCA2 260001Z 09008KT 39/09 A2979 RMK A01 T03920088  RH  016%=      5-min Rain = 0
KCA2 260002Z 09010G15KT 39/09 A2979 RMK A01 T03910087  RH  016%=      5-min Rain = 0
KCA2 260003Z 06010KT 39/09 A2979 RMK A01 T03900086  RH  016%=      5-min Rain = 0
KCA2 260004Z 07008KT 39/09 A2979 RMK A01 T03900085  RH  016%=      5-min Rain = 0
KCA2 260005Z 07008G13KT 39/09 A2979 RMK A01 T03910085  RH  016%=      5-min Rain = 0
KCA2 260006Z 07011KT 39/08 A2979 RMK A01 T03920082  RH  015%=      5-min Rain = 0
KCA2 260007Z 08011KT 39/08 A2979 RMK A01 T03900081  RH  015%=      5-min Rain = 0
KCA2 260008Z 06009KT 39/08 A2979 RMK A01 T03910081  RH  015%=      5-min Rain = 0
KCA2 260009Z 05009KT 39/08 A2979 RMK A01 T03910080  RH  015%=      5-min Rain = 0
KCA2 260010Z 06010KT 39/08 A2979 RMK A01 T03900079  RH  015%=      5-min Rain = 0
KCA2 260011Z 07010KT 39/08 A2979 RMK A01 T03900078  RH  015%=      5-min Rain = 0
KCA2 260012Z 10010KT 39/08 A2979 RMK A01 T03910078  RH  015%=      5-min Rain = 0
KCA2 260013Z 08013KT 39/08 A2979 RMK A01 T03910076  RH  015%=      5-min Rain = 0
KCA2 260014Z 07012KT 39/07 A2979 RMK A01 T03890073  RH  015%=      5-min Rain = 0
KCA2 260015Z 08011KT 39/07 A298 RMK A01 T03880074  RH  015%=      5-min Rain = 0
KCA2 260016Z 07011KT 39/07 A298 RMK A01 T03890074  RH  015%=      5-min Rain = 0
KCA2 260017Z 06011KT 39/07 A298 RMK A01 T03880072  RH  015%=      5-min Rain = 0
KCA2 260018Z 06012KT 39/07 A298 RMK A01 T03880071  RH  015%=      5-min Rain = 0
KCA2 260019Z 06010KT 39/07 A298 RMK A01 T03880069  RH  014%=      5-min Rain = 0
KCA2 260020Z 06010KT 39/07 A298 RMK A01 T03880072  RH  015%=      5-min Rain = 0
KCA2 260021Z 06014KT 39/07 A298 RMK A01 T03870073  RH  015%=      5-min Rain = 0
KCA2 260022Z 07011KT 39/07 A298 RMK A01 T03860074  RH  015%=      5-min Rain = 0
KCA2 260023Z 06012KT 39/08 A298 RMK A01 T03860075  RH  015%=      5-min Rain = 0
KCA2 260024Z 06011KT 39/08 A298 RMK A01 T03860076  RH  015%=      5-min Rain = 0
KCA2 260025Z 05012KT 39/08 A298 RMK A01 T03860075  RH  015%=      5-min Rain = 0
KCA2 260026Z 07013KT 39/07 A298 RMK A01 T03860073  RH  015%=      5-min Rain = 0
KCA2 260027Z 07012KT 39/07 A298 RMK A01 T03860072  RH  015%=      5-min Rain = 0
KCA2 260028Z 07014KT 39/07 A298 RMK A01 T03860069  RH  015%=      5-min Rain = 0
KCA2 260029Z 07012KT 39/07 A298 RMK A01 T03860066  RH  014%=      5-min Rain = 0
KCA2 260030Z 06012KT 39/07 A298 RMK A01 T03850067  RH  014%=      5-min Rain = 0
KCA2 260031Z 06010KT 39/07 A298 RMK A01 T03850067  RH  014%=      5-min Rain = 0
KCA2 260032Z 07012KT 39/07 A298 RMK A01 T03850067  RH  014%=      5-min Rain = 0
KCA2 260033Z 07011KT 39/07 A298 RMK A01 T03860069  RH  015%=      5-min Rain = 0
KCA2 260034Z 07009KT 39/07 A298 RMK A01 T03850070  RH  015%=      5-min Rain = 0
KCA2 260035Z 07010KT 39/07 A298 RMK A01 T03860070  RH  015%=      5-min Rain = 0
KCA2 260036Z 08010KT 39/07 A298 RMK A01 T03860070  RH  015%=      5-min Rain = 0
KCA2 260037Z 07010KT 39/07 A298 RMK A01 T03850071  RH  015%=      5-min Rain = 0
KCA2 260038Z 08008KT 38/07 A298 RMK A01 T03840070  RH  015%=      5-min Rain = 0
KCA2 260039Z 07007KT 39/07 A298 RMK A01 T03850070  RH  015%=      5-min Rain = 0
KCA2 260040Z 06008KT 39/07 A298 RMK A01 T03860070  RH  015%=      5-min Rain = 0
KCA2 260041Z 09008KT 39/07 A298 RMK A01 T03860069  RH  015%=      5-min Rain = 0
KCA2 260042Z 08006KT 39/07 A298 RMK A01 T03860068  RH  014%=      5-min Rain = 0
KCA2 260043Z 08006KT 39/07 A298 RMK A01 T03860070  RH  015%=      5-min Rain = 0
KCA2 260044Z 07009KT 39/07 A298 RMK A01 T03860073  RH  015%=      5-min Rain = 0
KCA2 260045Z 06010KT 39/08 A298 RMK A01 T03860077  RH  015%=      5-min Rain = 0
KCA2 260046Z 06010KT 39/08 A298 RMK A01 T03850081  RH  016%=      5-min Rain = 0
KCA2 260047Z 04008KT 38/08 A2981 RMK A01 T03840079  RH  016%=      5-min Rain = 0
KCA2 260048Z 05007KT 38/08 A2981 RMK A01 T03830078  RH  016%=      5-min Rain = 0
KCA2 260049Z 05006KT 38/08 A2981 RMK A01 T03830077  RH  016%=      5-min Rain = 0
KCA2 260050Z 05005KT 38/08 A2981 RMK A01 T03840077  RH  016%=      5-min Rain = 0
KCA2 260051Z 08005KT 39/08 A2981 RMK A01 T03850078  RH  016%=      5-min Rain = 0
KCA2 260052Z 10005KT 39/08 A2981 RMK A01 T03860078  RH  016%=      5-min Rain = 0
KCA2 260053Z 09004KT 39/08 A2981 RMK A01 T03860079  RH  016%=      5-min Rain = 0
KCA2 260054Z 09006KT 39/08 A2981 RMK A01 T03860079  RH  016%=      5-min Rain = 0
KCA2 260055Z 08006KT 39/08 A2981 RMK A01 T03860082  RH  016%=      5-min Rain = 0
KCA2 260056Z 09005KT 39/08 A2981 RMK A01 T03860084  RH  016%=      5-min Rain = 0
KCA2 260057Z 08006KT 39/09 A2981 RMK A01 T03850088  RH  017%=      5-min Rain = 0
KCA2 260058Z 10007KT 39/09 A2981 RMK A01 T03850090  RH  017%=      5-min Rain = 0
KCA2 260059Z 11009KT 38/09 A2981 RMK A01 T03840088  RH  017%=      5-min Rain = 0
KCA2 260100Z 09009KT 38/09 A2981 RMK A01 T03830091  RH  017%=      5-min Rain = 0
KCA2 260101Z 09008KT 38/10 A2981 RMK A01 T03830096  RH  018%=      5-min Rain = 0
KCA2 260102Z 08007KT 38/10 A2981 RMK A01 T03820098  RH  018%=      5-min Rain = 0
KCA2 260103Z 09006KT 38/10 A2981 RMK A01 T03820099  RH  018%=      5-min Rain = 0
KCA2 260104Z 10008KT 38/10 A2981 RMK A01 T03820097  RH  018%=      5-min Rain = 0
KCA2 260105Z 10010KT 38/09 A2981 RMK A01 T03820093  RH  018%=      5-min Rain = 0
KCA2 260106Z 09008KT 38/09 A2981 RMK A01 T03820093  RH  018%=      5-min Rain = 0
KCA2 260107Z 08010KT 38/09 A2981 RMK A01 T03810092  RH  017%=      5-min Rain = 0
KCA2 260108Z 08008KT 38/09 A2981 RMK A01 T03810090  RH  017%=      5-min Rain = 0
KCA2 260109Z 07008KT 38/09 A2981 RMK A01 T03800088  RH  017%=      5-min Rain = 0
KCA2 260110Z 07006KT 38/09 A2981 RMK A01 T03790087  RH  017%=      5-min Rain = 0
KCA2 260111Z 08006KT 38/09 A2981 RMK A01 T03790088  RH  017%=      5-min Rain = 0
KCA2 260112Z 08006KT 38/09 A2981 RMK A01 T03790089  RH  017%=      5-min Rain = 0
KCA2 260113Z 08007KT 38/09 A2981 RMK A01 T03790090  RH  017%=      5-min Rain = 0
KCA2 260114Z 07007KT 38/09 A2981 RMK A01 T03790093  RH  018%=      5-min Rain = 0
KCA2 260115Z 08006KT 38/10 A2981 RMK A01 T03790101  RH  019%=      5-min Rain = 0
KCA2 260116Z 10006KT 38/10 A2981 RMK A01 T03780100  RH  019%=      5-min Rain = 0
KCA2 260117Z 10008KT 38/10 A2981 RMK A01 T03780099  RH  019%=      5-min Rain = 0
KCA2 260118Z 10007KT 38/10 A2981 RMK A01 T03780102  RH  019%=      5-min Rain = 0
KCA2 260119Z 09008KT 38/11 A2981 RMK A01 T03780106  RH  019%=      5-min Rain = 0
KCA2 260120Z 07009KT 38/11 A2981 RMK A01 T03780107  RH  020%=      5-min Rain = 0
KCA2 260121Z 07009KT 38/11 A2981 RMK A01 T03770110  RH  020%=      5-min Rain = 0
KCA2 260122Z 06011KT 38/11 A2981 RMK A01 T03760110  RH  020%=      5-min Rain = 0
KCA2 260123Z 07013KT 38/11 A2981 RMK A01 T03750111  RH  020%=      5-min Rain = 0
KCA2 260124Z 07010KT 38/11 A2981 RMK A01 T03750111  RH  020%=      5-min Rain = 0
KCA2 260125Z 06010KT 38/11 A2981 RMK A01 T03750111  RH  020%=      5-min Rain = 0
KCA2 260126Z 06010KT 37/11 A2981 RMK A01 T03740111  RH  021%=      5-min Rain = 0
KCA2 260127Z 07010KT 37/11 A2981 RMK A01 T03730110  RH  021%=      5-min Rain = 0
KCA2 260128Z 08010KT 37/11 A2981 RMK A01 T03730110  RH  021%=      5-min Rain = 0
KCA2 260129Z 06010KT 37/11 A2981 RMK A01 T03730111  RH  021%=      5-min Rain = 0
KCA2 260130Z 06012KT 37/11 A2981 RMK A01 T03720110  RH  021%=      5-min Rain = 0
KCA2 260131Z 07012KT 37/11 A2981 RMK A01 T03720110  RH  021%=      5-min Rain = 0
KCA2 260132Z 08009KT 37/11 A2981 RMK A01 T03720111  RH  021%=      5-min Rain = 0
KCA2 260133Z 08010KT 37/11 A2981 RMK A01 T03720110  RH  021%=      5-min Rain = 0
KCA2 260134Z 07010KT 37/11 A2981 RMK A01 T03710110  RH  021%=      5-min Rain = 0
KCA2 260135Z 07010KT 37/11 A2982 RMK A01 T03710110  RH  021%=      5-min Rain = 0
KCA2 260136Z 07012KT 37/11 A2982 RMK A01 T03700111  RH  021%=      5-min Rain = 0
KCA2 260137Z 08011KT 37/11 A2982 RMK A01 T03710112  RH  021%=      5-min Rain = 0
KCA2 260138Z 08011KT 37/11 A2982 RMK A01 T03700110  RH  021%=      5-min Rain = 0
KCA2 260139Z 07011KT 37/11 A2982 RMK A01 T03700112  RH  021%=      5-min Rain = 0
KCA2 260140Z 07010KT 37/11 A2982 RMK A01 T03690114  RH  022%=      5-min Rain = 0
KCA2 260141Z 06009KT 37/11 A2982 RMK A01 T03680114  RH  022%=      5-min Rain = 0
KCA2 260142Z 07013KT 37/12 A2982 RMK A01 T03670115  RH  022%=      5-min Rain = 0
KCA2 260143Z 06011KT 37/12 A2982 RMK A01 T03660117  RH  022%=      5-min Rain = 0
KCA2 260144Z 06010KT 37/12 A2982 RMK A01 T03660117  RH  022%=      5-min Rain = 0
KCA2 260145Z 06012KT 37/12 A2982 RMK A01 T03650117  RH  022%=      5-min Rain = 0
KCA2 260146Z 07014KT 37/12 A2982 RMK A01 T03650117  RH  022%=      5-min Rain = 0
KCA2 260147Z 07012KT 37/12 A2982 RMK A01 T03650117  RH  022%=      5-min Rain = 0
KCA2 260148Z 06011KT 37/12 A2982 RMK A01 T03650117  RH  022%=      5-min Rain = 0
KCA2 260149Z 08011KT 36/12 A2982 RMK A01 T03640116  RH  022%=      5-min Rain = 0
KCA2 260150Z 07010KT 36/12 A2982 RMK A01 T03640116  RH  023%=      5-min Rain = 0
KCA2 260151Z 06010KT 36/12 A2982 RMK A01 T03640116  RH  022%=      5-min Rain = 0
KCA2 260152Z 06011KT 36/11 A2982 RMK A01 T03640114  RH  022%=      5-min Rain = 0
KCA2 260153Z 06011KT 36/11 A2982 RMK A01 T03640114  RH  022%=      5-min Rain = 0
KCA2 260154Z 06010KT 36/11 A2982 RMK A01 T03640114  RH  022%=      5-min Rain = 0
KCA2 260155Z 06008KT 36/11 A2982 RMK A01 T03640113  RH  022%=      5-min Rain = 0
KCA2 260156Z 06010KT 36/11 A2982 RMK A01 T03640113  RH  022%=      5-min Rain = 0
KCA2 260157Z 07009KT 36/12 A2982 RMK A01 T03640115  RH  022%=      5-min Rain = 0
KCA2 260158Z 07008KT 36/12 A2982 RMK A01 T03640115  RH  022%=      5-min Rain = 0
KCA2 260159Z 07010KT 36/12 A2982 RMK A01 T03630116  RH  023%=      5-min Rain = 0
KCA2 260200Z 06010KT 36/12 A2982 RMK A01 T03620116  RH  023%=      5-min Rain = 0
KCA2 260201Z 06010KT 36/12 A2983 RMK A01 T03620117  RH  023%=      5-min Rain = 0
KCA2 260202Z 06009G14KT 36/12 A2983 RMK A01 T03620116  RH  023%=      5-min Rain = 0
KCA2 260203Z 06011KT 36/12 A2983 RMK A01 T03620116  RH  023%=      5-min Rain = 0
KCA2 260204Z 07010KT 36/12 A2983 RMK A01 T03610116  RH  023%=      5-min Rain = 0
KCA2 260205Z 08009KT 36/12 A2983 RMK A01 T03610117  RH  023%=      5-min Rain = 0
KCA2 260206Z 08008KT 36/12 A2983 RMK A01 T03600117  RH  023%=      5-min Rain = 0
KCA2 260207Z 08007KT 36/12 A2983 RMK A01 T03600118  RH  023%=      5-min Rain = 0
KCA2 260208Z 07007KT 36/12 A2983 RMK A01 T03590117  RH  023%=      5-min Rain = 0
KCA2 260209Z 07007KT 36/12 A2983 RMK A01 T03580117  RH  023%=      5-min Rain = 0
KCA2 260210Z 08009KT 36/12 A2983 RMK A01 T03580117  RH  023%=      5-min Rain = 0
KCA2 260211Z 08009KT 36/12 A2983 RMK A01 T03580116  RH  023%=      5-min Rain = 0
KCA2 260212Z 07008KT 36/12 A2983 RMK A01 T03580115  RH  023%=      5-min Rain = 0
KCA2 260213Z 06008KT 36/12 A2983 RMK A01 T03580115  RH  023%=      5-min Rain = 0
KCA2 260214Z 07007KT 36/12 A2983 RMK A01 T03580115  RH  023%=      5-min Rain = 0
KCA2 260215Z 07007KT 36/11 A2983 RMK A01 T03570114  RH  023%=      5-min Rain = 0
KCA2 260216Z 07007KT 36/11 A2983 RMK A01 T03570113  RH  023%=      5-min Rain = 0
KCA2 260217Z 08008KT 36/11 A2983 RMK A01 T03570113  RH  023%=      5-min Rain = 0
KCA2 260218Z 07007KT 36/11 A2983 RMK A01 T03570113  RH  023%=      5-min Rain = 0
KCA2 260219Z 07006KT 36/11 A2983 RMK A01 T03570113  RH  023%=      5-min Rain = 0
KCA2 260220Z 08008KT 36/11 A2983 RMK A01 T03560112  RH  023%=      5-min Rain = 0
KCA2 260221Z 07007KT 36/11 A2983 RMK A01 T03560110  RH  023%=      5-min Rain = 0
KCA2 260222Z 07006KT 36/11 A2983 RMK A01 T03560111  RH  023%=      5-min Rain = 0
KCA2 260223Z 07007KT 36/11 A2983 RMK A01 T03560112  RH  023%=      5-min Rain = 0
KCA2 260224Z 06007KT 36/11 A2984 RMK A01 T03550113  RH  023%=      5-min Rain = 0
KCA2 260225Z 07008KT 36/11 A2984 RMK A01 T03550113  RH  023%=      5-min Rain = 0
KCA2 260226Z 09007KT 36/11 A2984 RMK A01 T03550113  RH  023%=      5-min Rain = 0
KCA2 260227Z 08007KT 36/11 A2984 RMK A01 T03550113  RH  023%=      5-min Rain = 0
KCA2 260228Z 07004KT 35/11 A2984 RMK A01 T03540113  RH  023%=      5-min Rain = 0
KCA2 260229Z 06006KT 35/11 A2984 RMK A01 T03540113  RH  023%=      5-min Rain = 0
KCA2 260230Z 07007KT 35/11 A2984 RMK A01 T03530113  RH  023%=      5-min Rain = 0
KCA2 260231Z 07007KT 35/11 A2984 RMK A01 T03530114  RH  024%=      5-min Rain = 0
KCA2 260232Z 07006KT 35/11 A2984 RMK A01 T03530114  RH  024%=      5-min Rain = 0
KCA2 260233Z 07006KT 35/11 A2984 RMK A01 T03520114  RH  024%=      5-min Rain = 0
KCA2 260234Z 07005KT 35/11 A2984 RMK A01 T03520114  RH  024%=      5-min Rain = 0
KCA2 260235Z 08004KT 35/11 A2984 RMK A01 T03520114  RH  024%=      5-min Rain = 0
KCA2 260236Z 09004KT 35/11 A2984 RMK A01 T03520114  RH  024%=      5-min Rain = 0
KCA2 260237Z 08004KT 35/11 A2984 RMK A01 T03510114  RH  024%=      5-min Rain = 0
KCA2 260238Z 07006KT 35/11 A2984 RMK A01 T03510114  RH  024%=      5-min Rain = 0
KCA2 260239Z 07006KT 35/11 A2984 RMK A01 T03510114  RH  024%=      5-min Rain = 0
KCA2 260240Z 10004KT 35/11 A2985 RMK A01 T03520114  RH  024%=      5-min Rain = 0
KCA2 260241Z 09004KT 35/11 A2985 RMK A01 T03510114  RH  024%=      5-min Rain = 0
KCA2 260242Z 10005KT 35/11 A2985 RMK A01 T03510114  RH  024%=      5-min Rain = 0
KCA2 260243Z 15003KT 35/11 A2985 RMK A01 T03510114  RH  024%=      5-min Rain = 0
KCA2 260244Z 16004KT 35/11 A2985 RMK A01 T03500113  RH  024%=      5-min Rain = 0
KCA2 260245Z 15005KT 35/11 A2985 RMK A01 T03490114  RH  024%=      5-min Rain = 0
KCA2 260246Z 15005KT 35/11 A2985 RMK A01 T03480114  RH  024%=      5-min Rain = 0
KCA2 260247Z 17004KT 35/12 A2985 RMK A01 T03470115  RH  025%=      5-min Rain = 0
KCA2 260248Z 15004KT 35/12 A2985 RMK A01 T03450115  RH  025%=      5-min Rain = 0
KCA2 260249Z 14004KT 34/12 A2985 RMK A01 T03430115  RH  025%=      5-min Rain = 0
KCA2 260250Z 14004KT 34/12 A2985 RMK A01 T03420115  RH  025%=      5-min Rain = 0
KCA2 260251Z 13004KT 34/12 A2985 RMK A01 T03420115  RH  025%=      5-min Rain = 0
KCA2 260252Z 12003KT 34/12 A2986 RMK A01 T03410115  RH  025%=      5-min Rain = 0
KCA2 260253Z 11003KT 34/12 A2986 RMK A01 T03410115  RH  025%=      5-min Rain = 0
KCA2 260254Z 11003KT 34/12 A2986 RMK A01 T03410115  RH  025%=      5-min Rain = 0
KCA2 260255Z 11003KT 34/12 A2986 RMK A01 T03410115  RH  025%=      5-min Rain = 0
KCA2 260256Z 11003KT 34/11 A2986 RMK A01 T03410113  RH  025%=      5-min Rain = 0
KCA2 260257Z 11003KT 34/11 A2986 RMK A01 T03420114  RH  025%=      5-min Rain = 0
KCA2 260258Z 10002KT 34/11 A2986 RMK A01 T03430114  RH  025%=      5-min Rain = 0
KCA2 260259Z 10003KT 34/11 A2986 RMK A01 T03430114  RH  025%=      5-min Rain = 0
KCA2 260300Z 10002KT 34/11 A2986 RMK A01 T03430114  RH  025%=      5-min Rain = 0
KCA2 260301Z 10002KT 34/11 A2986 RMK A01 T03420114  RH  025%=      5-min Rain = 0
KCA2 260302Z 10002KT 34/11 A2986 RMK A01 T03420114  RH  025%=      5-min Rain = 0
KCA2 260303Z 11003KT 34/11 A2986 RMK A01 T03420113  RH  025%=      5-min Rain = 0
KCA2 260304Z 11002KT 34/11 A2987 RMK A01 T03420113  RH  025%=      5-min Rain = 0
KCA2 260305Z 14002KT 34/11 A2987 RMK A01 T03420113  RH  025%=      5-min Rain = 0
KCA2 260306Z 15002KT 34/11 A2987 RMK A01 T03410113  RH  025%=      5-min Rain = 0
KCA2 260307Z 15004KT 34/11 A2987 RMK A01 T03400114  RH  025%=      5-min Rain = 0
KCA2 260308Z 15006KT 34/11 A2987 RMK A01 T03390114  RH  025%=      5-min Rain = 0
KCA2 260309Z 14007KT 34/11 A2987 RMK A01 T03370114  RH  026%=      5-min Rain = 0
KCA2 260310Z 15007KT 34/11 A2987 RMK A01 T03360114  RH  026%=      5-min Rain = 0
KCA2 260311Z 15008KT 34/11 A2987 RMK A01 T03350114  RH  026%=      5-min Rain = 0
KCA2 260312Z 14009KT 33/12 A2987 RMK A01 T03340116  RH  027%=      5-min Rain = 0
KCA2 260313Z 14008KT 33/12 A2987 RMK A01 T03340119  RH  027%=      5-min Rain = 0
KCA2 260314Z 14012KT 34/13 A2987 RMK A01 T03350126  RH  028%=      5-min Rain = 0
KCA2 260315Z 14012KT 33/14 A2987 RMK A01 T03340138  RH  031%=      5-min Rain = 0
KCA2 260316Z 14013KT 33/14 A2987 RMK A01 T03340142  RH  031%=      5-min Rain = 0
KCA2 260317Z 13013KT 33/14 A2987 RMK A01 T03340144  RH  032%=      5-min Rain = 0
KCA2 260318Z 13013KT 33/15 A2987 RMK A01 T03340145  RH  032%=      5-min Rain = 0
KCA2 260319Z 13013KT 33/15 A2987 RMK A01 T03340146  RH  032%=      5-min Rain = 0
KCA2 260320Z 13011KT 33/15 A2988 RMK A01 T03340146  RH  032%=      5-min Rain = 0
KCA2 260321Z 13011KT 33/15 A2988 RMK A01 T03340146  RH  032%=      5-min Rain = 0
KCA2 260322Z 13011KT 33/15 A2988 RMK A01 T03340146  RH  032%=      5-min Rain = 0
KCA2 260323Z 13012KT 33/15 A2988 RMK A01 T03330146  RH  032%=      5-min Rain = 0
KCA2 260324Z 13010G15KT 33/15 A2988 RMK A01 T03330146  RH  033%=      5-min Rain = 0
KCA2 260325Z 13012KT 33/15 A2988 RMK A01 T03330147  RH  033%=      5-min Rain = 0
KCA2 260326Z 13013KT 33/15 A2988 RMK A01 T03320147  RH  033%=      5-min Rain = 0
KCA2 260327Z 12012KT 33/15 A2988 RMK A01 T03320147  RH  033%=      5-min Rain = 0
KCA2 260328Z 12012KT 33/15 A2988 RMK A01 T03320146  RH  032%=      5-min Rain = 0
KCA2 260329Z 12013KT 33/15 A2988 RMK A01 T03330145  RH  032%=      5-min Rain = 0
KCA2 260330Z 12012KT 33/15 A2988 RMK A01 T03340145  RH  032%=      5-min Rain = 0
KCA2 260331Z 12009KT 33/15 A2988 RMK A01 T03340145  RH  032%=      5-min Rain = 0
KCA2 260332Z 12011KT 33/15 A2988 RMK A01 T03340145  RH  032%=      5-min Rain = 0
KCA2 260333Z 12010KT 33/15 A2988 RMK A01 T03340145  RH  032%=      5-min Rain = 0
KCA2 260334Z 12009KT 33/15 A2988 RMK A01 T03340145  RH  032%=      5-min Rain = 0
KCA2 260335Z 12012KT 33/15 A2988 RMK A01 T03340145  RH  032%=      5-min Rain = 0
KCA2 260336Z 12012KT 33/15 A2988 RMK A01 T03340145  RH  032%=      5-min Rain = 0
KCA2 260337Z 12012KT 33/15 A2988 RMK A01 T03340145  RH  032%=      5-min Rain = 0
KCA2 260338Z 13013KT 33/15 A2988 RMK A01 T03340145  RH  032%=      5-min Rain = 0
KCA2 260339Z 13010KT 33/15 A2988 RMK A01 T03340145  RH  032%=      5-min Rain = 0
KCA2 260340Z 13010KT 33/15 A2988 RMK A01 T03330145  RH  032%=      5-min Rain = 0
KCA2 260341Z 13009KT 33/15 A2988 RMK A01 T03330145  RH  032%=      5-min Rain = 0
KCA2 260342Z 12012KT 33/15 A2989 RMK A01 T03320145  RH  032%=      5-min Rain = 0
KCA2 260343Z 13010G15KT 33/15 A2989 RMK A01 T03320146  RH  033%=      5-min Rain = 0
KCA2 260344Z 13011G16KT 33/15 A2989 RMK A01 T03310145  RH  033%=      5-min Rain = 0
KCA2 260345Z 13013KT 33/15 A2989 RMK A01 T03300146  RH  033%=      5-min Rain = 0
KCA2 260346Z 13011KT 33/15 A2989 RMK A01 T03300146  RH  033%=      5-min Rain = 0
KCA2 260347Z 13010KT 33/15 A2989 RMK A01 T03290146  RH  033%=      5-min Rain = 0
KCA2 260348Z 13011KT 33/15 A2989 RMK A01 T03280146  RH  034%=      5-min Rain = 0
KCA2 260349Z 14013KT 33/15 A2989 RMK A01 T03270147  RH  034%=      5-min Rain = 0
KCA2 260350Z 14011KT 33/15 A2989 RMK A01 T03260147  RH  034%=      5-min Rain = 0
KCA2 260351Z 14013KT 33/15 A2989 RMK A01 T03250147  RH  034%=      5-min Rain = 0
KCA2 260352Z 13012KT 33/15 A2989 RMK A01 T03250148  RH  034%=      5-min Rain = 0
KCA2 260353Z 13013KT 32/15 A2989 RMK A01 T03240147  RH  034%=      5-min Rain = 0
KCA2 260354Z 13010KT 32/15 A2989 RMK A01 T03240147  RH  034%=      5-min Rain = 0
KCA2 260355Z 13012KT 32/15 A299 RMK A01 T03240148  RH  035%=      5-min Rain = 0
KCA2 260356Z 13014KT 32/15 A299 RMK A01 T03230148  RH  035%=      5-min Rain = 0
KCA2 260357Z 13014KT 32/15 A299 RMK A01 T03230148  RH  035%=      5-min Rain = 0
KCA2 260358Z 13013KT 32/15 A299 RMK A01 T03240148  RH  035%=      5-min Rain = 0
KCA2 260359Z 13013KT 32/15 A299 RMK A01 T03240148  RH  035%=      5-min Rain = 0
KCA2 260400Z 13014KT 32/15 A299 RMK A01 T03240148  RH  035%=      5-min Rain = 0
KCA2 260401Z 12011KT 32/15 A299 RMK A01 T03240148  RH  035%=      5-min Rain = 0
KCA2 260402Z 12010KT 32/15 A299 RMK A01 T03240148  RH  035%=      5-min Rain = 0
KCA2 260403Z 13011KT 32/15 A299 RMK A01 T03240148  RH  035%=      5-min Rain = 0
KCA2 260404Z 12015KT 32/15 A299 RMK A01 T03240148  RH  035%=      5-min Rain = 0
KCA2 260405Z 13012KT 32/15 A299 RMK A01 T03240149  RH  035%=      5-min Rain = 0
KCA2 260406Z 13011KT 32/15 A299 RMK A01 T03240149  RH  035%=      5-min Rain = 0
KCA2 260407Z 12010KT 32/15 A2991 RMK A01 T03230149  RH  035%=      5-min Rain = 0
KCA2 260408Z 12013KT 32/15 A2991 RMK A01 T03230149  RH  035%=      5-min Rain = 0
KCA2 260409Z 12014KT 32/15 A2991 RMK A01 T03230149  RH  035%=      5-min Rain = 0
KCA2 260410Z 12013KT 32/15 A2991 RMK A01 T03230149  RH  035%=      5-min Rain = 0
KCA2 260411Z 12014KT 32/15 A2991 RMK A01 T03230149  RH  035%=      5-min Rain = 0
KCA2 260412Z 12018KT 32/15 A299 RMK A01 T03230149  RH  035%=      5-min Rain = 0
KCA2 260413Z 12013KT 32/15 A2991 RMK A01 T03230150  RH  035%=      5-min Rain = 0
KCA2 260414Z 12011G16KT 32/15 A2991 RMK A01 T03230150  RH  035%=      5-min Rain = 0
KCA2 260415Z 12011KT 32/15 A2991 RMK A01 T03220150  RH  035%=      5-min Rain = 0
KCA2 260416Z 12013KT 32/15 A2991 RMK A01 T03220150  RH  035%=      5-min Rain = 0
KCA2 260417Z 12015KT 32/15 A2991 RMK A01 T03220150  RH  035%=      5-min Rain = 0
KCA2 260418Z 13015KT 32/15 A2991 RMK A01 T03220151  RH  036%=      5-min Rain = 0
KCA2 260419Z 13013KT 32/15 A2991 RMK A01 T03220150  RH  036%=      5-min Rain = 0
KCA2 260420Z 13012KT 32/15 A2991 RMK A01 T03220150  RH  036%=      5-min Rain = 0
KCA2 260421Z 13011KT 32/15 A2991 RMK A01 T03220151  RH  036%=      5-min Rain = 0
KCA2 260422Z 13011G16KT 32/15 A2992 RMK A01 T03210151  RH  036%=      5-min Rain = 0
KCA2 260423Z 13013KT 32/15 A2992 RMK A01 T03210151  RH  036%=      5-min Rain = 0
KCA2 260424Z 13014KT 32/15 A2992 RMK A01 T03200151  RH  036%=      5-min Rain = 0
KCA2 260425Z 13010KT 32/15 A2992 RMK A01 T03200151  RH  036%=      5-min Rain = 0
KCA2 260426Z 12012KT 32/15 A2992 RMK A01 T03200152  RH  036%=      5-min Rain = 0
KCA2 260427Z 12013KT 32/15 A2992 RMK A01 T03200152  RH  036%=      5-min Rain = 0
KCA2 260428Z 13009KT 32/15 A2992 RMK A01 T03190152  RH  036%=      5-min Rain = 0
KCA2 260429Z 13009KT 32/15 A2992 RMK A01 T03190152  RH  036%=      5-min Rain = 0
KCA2 260430Z 12010KT 32/15 A2992 RMK A01 T03190152  RH  037%=      5-min Rain = 0
KCA2 260431Z 13009KT 32/15 A2992 RMK A01 T03180152  RH  037%=      5-min Rain = 0
KCA2 260432Z 13009KT 32/15 A2992 RMK A01 T03180152  RH  037%=      5-min Rain = 0
KCA2 260433Z 13012KT 32/15 A2992 RMK A01 T03180152  RH  037%=      5-min Rain = 0
KCA2 260434Z 13012KT 32/15 A2992 RMK A01 T03170151  RH  037%=      5-min Rain = 0
KCA2 260435Z 13010KT 32/15 A2992 RMK A01 T03170152  RH  037%=      5-min Rain = 0
KCA2 260436Z 13011KT 32/15 A2992 RMK A01 T03170151  RH  037%=      5-min Rain = 0
KCA2 260437Z 13011KT 32/15 A2992 RMK A01 T03170151  RH  037%=      5-min Rain = 0
KCA2 260438Z 14011KT 32/15 A2992 RMK A01 T03170151  RH  037%=      5-min Rain = 0
KCA2 260439Z 14008KT 32/15 A2992 RMK A01 T03170151  RH  037%=      5-min Rain = 0
KCA2 260440Z 14011KT 32/15 A2992 RMK A01 T03160150  RH  037%=      5-min Rain = 0
KCA2 260441Z 14011KT 32/15 A2992 RMK A01 T03160149  RH  036%=      5-min Rain = 0
KCA2 260442Z 14014G20KT 32/15 A2992 RMK A01 T03160148  RH  036%=      5-min Rain = 0
KCA2 260443Z 12018KT 32/15 A2992 RMK A01 T03160147  RH  036%=      5-min Rain = 0
KCA2 260444Z 14012G20KT 32/15 A2992 RMK A01 T03160146  RH  036%=      5-min Rain = 0
KCA2 260445Z 13011KT 32/15 A2993 RMK A01 T03170146  RH  036%=      5-min Rain = 0
KCA2 260446Z 13010KT 32/15 A2993 RMK A01 T03160147  RH  036%=      5-min Rain = 0
KCA2 260447Z 13015KT 32/15 A2993 RMK A01 T03160147  RH  036%=      5-min Rain = 0
KCA2 260448Z 13011KT 32/15 A2993 RMK A01 T03160147  RH  036%=      5-min Rain = 0
KCA2 260449Z 13012KT 32/15 A2993 RMK A01 T03150147  RH  036%=      5-min Rain = 0
KCA2 260450Z 12012KT 32/15 A2993 RMK A01 T03150147  RH  036%=      5-min Rain = 0
KCA2 260451Z 13010KT 32/15 A2993 RMK A01 T03150146  RH  036%=      5-min Rain = 0
KCA2 260452Z 12010KT 32/15 A2993 RMK A01 T03150146  RH  036%=      5-min Rain = 0
KCA2 260453Z 13012KT 32/15 A2993 RMK A01 T03150146  RH  036%=      5-min Rain = 0
KCA2 260454Z 13016KT 32/15 A2993 RMK A01 T03150146  RH  036%=      5-min Rain = 0
KCA2 260455Z 13014KT 32/15 A2993 RMK A01 T03150146  RH  036%=      5-min Rain = 0
KCA2 260456Z 13012KT 32/15 A2993 RMK A01 T03150146  RH  036%=      5-min Rain = 0
KCA2 260457Z 13013KT 32/15 A2993 RMK A01 T03150146  RH  036%=      5-min Rain = 0
KCA2 260458Z 12015KT 31/15 A2993 RMK A01 T03140146  RH  036%=      5-min Rain = 0
KCA2 260459Z 12011KT 31/15 A2993 RMK A01 T03140146  RH  036%=      5-min Rain = 0

Page generated in 0.1339 seconds.